Observation data for Estelline on 12/08/2019      Previous  Date       Current Mesonet Observations  Soil Data  Daily Summary Page  Observations in Plain Language
KES1 080600Z 17007KT 09/03 A2995 RMK A01 T00870025  RH  065%=      5-min Rain = 0
KES1 080601Z 17007KT 09/03 A2995 RMK A01 T00880025  RH  065%=      5-min Rain = 0
KES1 080602Z 17006KT 09/03 A2995 RMK A01 T00880026  RH  065%=      5-min Rain = 0
KES1 080603Z 18005KT 09/03 A2995 RMK A01 T00880025  RH  065%=      5-min Rain = 0
KES1 080604Z 17005KT 09/03 A2995 RMK A01 T00880025  RH  065%=      5-min Rain = 0
KES1 080605Z 17005KT 09/03 A2995 RMK A01 T00870025  RH  065%=      5-min Rain = 0
KES1 080606Z 17005KT 09/03 A2995 RMK A01 T00870025  RH  065%=      5-min Rain = 0
KES1 080607Z 17004KT 09/03 A2995 RMK A01 T00860025  RH  065%=      5-min Rain = 0
KES1 080608Z 17004KT 09/03 A2995 RMK A01 T00860025  RH  065%=      5-min Rain = 0
KES1 080609Z 17004KT 09/03 A2995 RMK A01 T00850025  RH  066%=      5-min Rain = 0
KES1 080610Z 18004KT 09/03 A2995 RMK A01 T00850025  RH  066%=      5-min Rain = 0
KES1 080611Z 19003KT 08/03 A2995 RMK A01 T00840025  RH  066%=      5-min Rain = 0
KES1 080612Z 25002KT 08/02 A2995 RMK A01 T00840024  RH  066%=      5-min Rain = 0
KES1 080613Z 26002KT 08/02 A2995 RMK A01 T00830024  RH  066%=      5-min Rain = 0
KES1 080614Z 29002KT 08/02 A2995 RMK A01 T00810023  RH  067%=      5-min Rain = 0
KES1 080615Z 30003KT 08/02 A2995 RMK A01 T00800022  RH  067%=      5-min Rain = 0
KES1 080616Z 30003KT 08/02 A2995 RMK A01 T00780021  RH  067%=      5-min Rain = 0
KES1 080617Z 30004KT 08/02 A2995 RMK A01 T00750020  RH  068%=      5-min Rain = 0
KES1 080618Z 30003KT 07/02 A2995 RMK A01 T00730021  RH  069%=      5-min Rain = 0
KES1 080619Z 28003KT 07/02 A2995 RMK A01 T00720020  RH  070%=      5-min Rain = 0
KES1 080620Z 29003KT 07/02 A2995 RMK A01 T00700020  RH  070%=      5-min Rain = 0
KES1 080621Z 29002KT 07/02 A2995 RMK A01 T00700021  RH  071%=      5-min Rain = 0
KES1 080622Z 30002KT 07/02 A2995 RMK A01 T00700021  RH  071%=      5-min Rain = 0
KES1 080623Z 32002KT 07/02 A2995 RMK A01 T00690021  RH  071%=      5-min Rain = 0
KES1 080624Z 32002KT 07/02 A2995 RMK A01 T00690021  RH  071%=      5-min Rain = 0
KES1 080625Z 33001KT 07/02 A2994 RMK A01 T00700021  RH  071%=      5-min Rain = 0
KES1 080626Z 36001KT 07/02 A2994 RMK A01 T00700021  RH  071%=      5-min Rain = 0
KES1 080627Z 00001KT 07/02 A2994 RMK A01 T00700022  RH  071%=      5-min Rain = 0
KES1 080628Z 01001KT 07/02 A2994 RMK A01 T00690020  RH  071%=      5-min Rain = 0
KES1 080629Z 02001KT 07/02 A2994 RMK A01 T00690020  RH  071%=      5-min Rain = 0
KES1 080630Z 03002KT 07/02 A2994 RMK A01 T00680020  RH  071%=      5-min Rain = 0
KES1 080631Z 04001KT 07/02 A2994 RMK A01 T00670020  RH  072%=      5-min Rain = 0
KES1 080632Z 05002KT 07/02 A2994 RMK A01 T00660019  RH  072%=      5-min Rain = 0
KES1 080633Z 06002KT 07/02 A2994 RMK A01 T00650017  RH  072%=      5-min Rain = 0
KES1 080634Z 06002KT 06/02 A2994 RMK A01 T00630017  RH  073%=      5-min Rain = 0
KES1 080635Z 06002KT 06/02 A2994 RMK A01 T00630018  RH  073%=      5-min Rain = 0
KES1 080636Z 06001KT 06/02 A2994 RMK A01 T00630019  RH  074%=      5-min Rain = 0
KES1 080637Z 08002KT 06/02 A2994 RMK A01 T00630019  RH  074%=      5-min Rain = 0
KES1 080638Z 09002KT 06/02 A2994 RMK A01 T00630020  RH  074%=      5-min Rain = 0
KES1 080639Z 08002KT 06/02 A2994 RMK A01 T00640020  RH  074%=      5-min Rain = 0
KES1 080640Z 08002KT 06/02 A2993 RMK A01 T00640020  RH  073%=      5-min Rain = 0
KES1 080641Z 08002KT 06/02 A2993 RMK A01 T00630019  RH  073%=      5-min Rain = 0
KES1 080642Z 07003KT 06/02 A2993 RMK A01 T00630020  RH  074%=      5-min Rain = 0
KES1 080643Z 08002KT 06/02 A2993 RMK A01 T00630020  RH  074%=      5-min Rain = 0
KES1 080644Z 08002KT 06/02 A2993 RMK A01 T00630020  RH  074%=      5-min Rain = 0
KES1 080645Z 07002KT 06/02 A2993 RMK A01 T00640021  RH  074%=      5-min Rain = 0
KES1 080646Z 08002KT 07/02 A2993 RMK A01 T00650022  RH  074%=      5-min Rain = 0
KES1 080647Z 08002KT 07/02 A2993 RMK A01 T00660022  RH  073%=      5-min Rain = 0
KES1 080648Z 08002KT 07/02 A2992 RMK A01 T00670022  RH  073%=      5-min Rain = 0
KES1 080649Z 07002KT 07/02 A2992 RMK A01 T00680022  RH  073%=      5-min Rain = 0
KES1 080650Z 07002KT 07/02 A2992 RMK A01 T00680022  RH  072%=      5-min Rain = 0
KES1 080651Z 06001KT 07/02 A2992 RMK A01 T00680022  RH  072%=      5-min Rain = 0
KES1 080652Z 06001KT 07/02 A2992 RMK A01 T00690022  RH  072%=      5-min Rain = 0
KES1 080653Z 05002KT 07/02 A2992 RMK A01 T00690021  RH  072%=      5-min Rain = 0
KES1 080654Z 05001KT 07/02 A2992 RMK A01 T00680021  RH  072%=      5-min Rain = 0
KES1 080655Z 04001KT 07/02 A2992 RMK A01 T00670021  RH  072%=      5-min Rain = 0
KES1 080656Z 03001KT 07/02 A2992 RMK A01 T00670021  RH  072%=      5-min Rain = 0
KES1 080657Z 05000KT 07/02 A2992 RMK A01 T00670021  RH  073%=      5-min Rain = 0
KES1 080658Z 03001KT 07/02 A2992 RMK A01 T00670022  RH  073%=      5-min Rain = 0
KES1 080659Z 02000KT 07/02 A2992 RMK A01 T00670021  RH  073%=      5-min Rain = 0
KES1 080700Z 03000KT 07/02 A2992 RMK A01 T00670021  RH  073%=      5-min Rain = 0
KES1 080701Z 00000KT 07/02 A2992 RMK A01 T00670023  RH  073%=      5-min Rain = 0
KES1 080702Z 26001KT 07/02 A2992 RMK A01 T00690024  RH  073%=      5-min Rain = 0
KES1 080703Z 22000KT 07/02 A2991 RMK A01 T00700023  RH  072%=      5-min Rain = 0
KES1 080704Z 00000KT 07/02 A2991 RMK A01 T00690021  RH  071%=      5-min Rain = 0
KES1 080705Z 18000KT 07/02 A2991 RMK A01 T00680021  RH  072%=      5-min Rain = 0
KES1 080706Z 19001KT 07/02 A2991 RMK A01 T00680022  RH  072%=      5-min Rain = 0
KES1 080707Z 20001KT 07/02 A2991 RMK A01 T00690023  RH  072%=      5-min Rain = 0
KES1 080708Z 21002KT 07/02 A2991 RMK A01 T00700024  RH  072%=      5-min Rain = 0
KES1 080709Z 19002KT 07/02 A2991 RMK A01 T00710022  RH  071%=      5-min Rain = 0
KES1 080710Z 20003KT 07/02 A2991 RMK A01 T00710022  RH  071%=      5-min Rain = 0
KES1 080711Z 19003KT 07/02 A299 RMK A01 T00720023  RH  071%=      5-min Rain = 0
KES1 080712Z 19003KT 07/02 A299 RMK A01 T00720024  RH  071%=      5-min Rain = 0
KES1 080713Z 18004KT 07/03 A299 RMK A01 T00740025  RH  071%=      5-min Rain = 0
KES1 080714Z 19004KT 08/03 A299 RMK A01 T00770025  RH  070%=      5-min Rain = 0
KES1 080715Z 20005KT 08/03 A299 RMK A01 T00780026  RH  069%=      5-min Rain = 0
KES1 080716Z 20004KT 08/03 A299 RMK A01 T00780025  RH  069%=      5-min Rain = 0
KES1 080717Z 21004KT 08/03 A299 RMK A01 T00790025  RH  069%=      5-min Rain = 0
KES1 080718Z 22004KT 08/03 A2991 RMK A01 T00790025  RH  069%=      5-min Rain = 0
KES1 080719Z 23004KT 08/02 A2991 RMK A01 T00770024  RH  069%=      5-min Rain = 0
KES1 080720Z 24004KT 08/02 A2991 RMK A01 T00750023  RH  069%=      5-min Rain = 0
KES1 080721Z 24004KT 07/02 A2991 RMK A01 T00730023  RH  070%=      5-min Rain = 0
KES1 080722Z 24004KT 07/02 A2991 RMK A01 T00720023  RH  071%=      5-min Rain = 0
KES1 080723Z 25004KT 07/02 A2991 RMK A01 T00720023  RH  071%=      5-min Rain = 0
KES1 080724Z 26003KT 07/02 A2991 RMK A01 T00710024  RH  072%=      5-min Rain = 0
KES1 080725Z 25004KT 07/02 A2991 RMK A01 T00710024  RH  072%=      5-min Rain = 0
KES1 080726Z 25004KT 07/02 A2991 RMK A01 T00710024  RH  072%=      5-min Rain = 0
KES1 080727Z 24005KT 07/02 A2991 RMK A01 T00720024  RH  072%=      5-min Rain = 0
KES1 080728Z 23005KT 07/02 A2991 RMK A01 T00720024  RH  072%=      5-min Rain = 0
KES1 080729Z 22005KT 07/02 A2991 RMK A01 T00730024  RH  071%=      5-min Rain = 0
KES1 080730Z 20005KT 07/03 A2991 RMK A01 T00730025  RH  072%=      5-min Rain = 0
KES1 080731Z 20005KT 08/03 A2991 RMK A01 T00770029  RH  071%=      5-min Rain = 0
KES1 080732Z 21006KT 08/03 A299 RMK A01 T00800029  RH  070%=      5-min Rain = 0
KES1 080733Z 20006KT 08/03 A299 RMK A01 T00820029  RH  069%=      5-min Rain = 0
KES1 080734Z 19007KT 08/03 A299 RMK A01 T00840029  RH  068%=      5-min Rain = 0
KES1 080735Z 19006KT 09/03 A299 RMK A01 T00850029  RH  068%=      5-min Rain = 0
KES1 080736Z 20007KT 09/03 A299 RMK A01 T00850029  RH  068%=      5-min Rain = 0
KES1 080737Z 19005KT 09/03 A299 RMK A01 T00870030  RH  067%=      5-min Rain = 0
KES1 080738Z 20005KT 09/03 A299 RMK A01 T00870029  RH  067%=      5-min Rain = 0
KES1 080739Z 21004KT 09/03 A299 RMK A01 T00870029  RH  067%=      5-min Rain = 0
KES1 080740Z 22004KT 09/03 A299 RMK A01 T00860028  RH  067%=      5-min Rain = 0
KES1 080741Z 24003KT 09/03 A299 RMK A01 T00850028  RH  067%=      5-min Rain = 0
KES1 080742Z 25003KT 08/03 A299 RMK A01 T00830026  RH  068%=      5-min Rain = 0
KES1 080743Z 26002KT 08/02 A299 RMK A01 T00800023  RH  068%=      5-min Rain = 0
KES1 080744Z 29001KT 08/02 A299 RMK A01 T00760020  RH  068%=      5-min Rain = 0
KES1 080745Z 30001KT 07/02 A299 RMK A01 T00720020  RH  069%=      5-min Rain = 0
KES1 080746Z 31000KT 07/02 A299 RMK A01 T00710022  RH  071%=      5-min Rain = 0
KES1 080747Z 29000KT 07/02 A299 RMK A01 T00700022  RH  071%=      5-min Rain = 0
KES1 080748Z 28000KT 07/02 A299 RMK A01 T00690020  RH  071%=      5-min Rain = 0
KES1 080749Z 22001KT 07/02 A299 RMK A01 T00680021  RH  072%=      5-min Rain = 0
KES1 080750Z 18001KT 07/02 A299 RMK A01 T00670021  RH  073%=      5-min Rain = 0
KES1 080751Z 18002KT 07/02 A299 RMK A01 T00670021  RH  073%=      5-min Rain = 0
KES1 080752Z 18003KT 07/02 A299 RMK A01 T00670023  RH  074%=      5-min Rain = 0
KES1 080753Z 18003KT 07/02 A299 RMK A01 T00680023  RH  073%=      5-min Rain = 0
KES1 080754Z 17004KT 07/02 A299 RMK A01 T00690024  RH  073%=      5-min Rain = 0
KES1 080755Z 18004KT 07/02 A299 RMK A01 T00700024  RH  072%=      5-min Rain = 0
KES1 080756Z 18003KT 07/02 A299 RMK A01 T00700023  RH  072%=      5-min Rain = 0
KES1 080757Z 18002KT 07/02 A299 RMK A01 T00700024  RH  073%=      5-min Rain = 0
KES1 080758Z 19002KT 07/03 A299 RMK A01 T00690025  RH  073%=      5-min Rain = 0
KES1 080759Z 21002KT 07/03 A299 RMK A01 T00690025  RH  073%=      5-min Rain = 0
KES1 080800Z 22002KT 07/03 A299 RMK A01 T00690026  RH  074%=      5-min Rain = 0
KES1 080801Z 24001KT 07/03 A299 RMK A01 T00710026  RH  073%=      5-min Rain = 0
KES1 080802Z 25001KT 07/03 A299 RMK A01 T00720026  RH  073%=      5-min Rain = 0
KES1 080803Z 25001KT 07/03 A299 RMK A01 T00720026  RH  072%=      5-min Rain = 0
KES1 080804Z 25001KT 07/03 A299 RMK A01 T00730027  RH  073%=      5-min Rain = 0
KES1 080805Z 22001KT 07/03 A299 RMK A01 T00730027  RH  072%=      5-min Rain = 0
KES1 080806Z 21002KT 07/03 A299 RMK A01 T00740027  RH  072%=      5-min Rain = 0
KES1 080807Z 21003KT 08/03 A299 RMK A01 T00750027  RH  072%=      5-min Rain = 0
KES1 080808Z 20003KT 08/03 A299 RMK A01 T00760027  RH  071%=      5-min Rain = 0
KES1 080809Z 20003KT 08/03 A299 RMK A01 T00770027  RH  071%=      5-min Rain = 0
KES1 080810Z 20004KT 08/03 A299 RMK A01 T00770026  RH  070%=      5-min Rain = 0
KES1 080811Z 21005KT 07/02 A299 RMK A01 T00730022  RH  070%=      5-min Rain = 0
KES1 080812Z 20005KT 07/02 A299 RMK A01 T00710024  RH  072%=      5-min Rain = 0
KES1 080813Z 21005KT 07/03 A299 RMK A01 T00730027  RH  072%=      5-min Rain = 0
KES1 080814Z 20005KT 08/03 A299 RMK A01 T00780029  RH  071%=      5-min Rain = 0
KES1 080815Z 20006KT 08/03 A2989 RMK A01 T00810030  RH  070%=      5-min Rain = 0
KES1 080816Z 20006KT 08/03 A2989 RMK A01 T00840030  RH  069%=      5-min Rain = 0
KES1 080817Z 20007KT 09/03 A2989 RMK A01 T00860030  RH  068%=      5-min Rain = 0
KES1 080818Z 20007KT 09/03 A2989 RMK A01 T00870030  RH  067%=      5-min Rain = 0
KES1 080819Z 20007KT 09/03 A2989 RMK A01 T00880030  RH  067%=      5-min Rain = 0
KES1 080820Z 20008KT 09/03 A2989 RMK A01 T00890030  RH  066%=      5-min Rain = 0
KES1 080821Z 19009KT 09/03 A2989 RMK A01 T00900030  RH  066%=      5-min Rain = 0
KES1 080822Z 20009KT 09/03 A2989 RMK A01 T00900030  RH  066%=      5-min Rain = 0
KES1 080823Z 20009KT 09/03 A2989 RMK A01 T00900030  RH  066%=      5-min Rain = 0
KES1 080824Z 20009KT 09/03 A2989 RMK A01 T00910030  RH  066%=      5-min Rain = 0
KES1 080825Z 19009KT 09/03 A2989 RMK A01 T00920030  RH  065%=      5-min Rain = 0
KES1 080826Z 19009KT 09/03 A2989 RMK A01 T00920030  RH  065%=      5-min Rain = 0
KES1 080827Z 19009KT 09/03 A2989 RMK A01 T00920030  RH  065%=      5-min Rain = 0
KES1 080828Z 19009KT 09/03 A2989 RMK A01 T00900030  RH  066%=      5-min Rain = 0
KES1 080829Z 19009KT 09/03 A2989 RMK A01 T00890030  RH  066%=      5-min Rain = 0
KES1 080830Z 19009KT 09/03 A2989 RMK A01 T00890030  RH  066%=      5-min Rain = 0
KES1 080831Z 19009KT 09/03 A2989 RMK A01 T00890030  RH  067%=      5-min Rain = 0
KES1 080832Z 19009KT 09/03 A2989 RMK A01 T00890030  RH  067%=      5-min Rain = 0
KES1 080833Z 19009KT 09/03 A2989 RMK A01 T00890030  RH  066%=      5-min Rain = 0
KES1 080834Z 19009KT 09/03 A2989 RMK A01 T00900030  RH  066%=      5-min Rain = 0
KES1 080835Z 19009KT 09/03 A2988 RMK A01 T00910031  RH  066%=      5-min Rain = 0
KES1 080836Z 19010KT 09/03 A2988 RMK A01 T00920031  RH  065%=      5-min Rain = 0
KES1 080837Z 19010KT 10/03 A2988 RMK A01 T00950031  RH  065%=      5-min Rain = 0
KES1 080838Z 19010KT 10/03 A2988 RMK A01 T00970032  RH  064%=      5-min Rain = 0
KES1 080839Z 20009KT 10/03 A2988 RMK A01 T00980032  RH  063%=      5-min Rain = 0
KES1 080840Z 19009KT 10/03 A2988 RMK A01 T00990032  RH  063%=      5-min Rain = 0
KES1 080841Z 19009KT 10/03 A2988 RMK A01 T00990031  RH  063%=      5-min Rain = 0
KES1 080842Z 19009KT 10/03 A2989 RMK A01 T00970030  RH  063%=      5-min Rain = 0
KES1 080843Z 19009KT 10/03 A2989 RMK A01 T00960030  RH  064%=      5-min Rain = 0
KES1 080844Z 19009KT 10/03 A2989 RMK A01 T00960031  RH  064%=      5-min Rain = 0
KES1 080845Z 20010KT 10/03 A2989 RMK A01 T00960031  RH  064%=      5-min Rain = 0
KES1 080846Z 20008KT 10/03 A2989 RMK A01 T00970031  RH  064%=      5-min Rain = 0
KES1 080847Z 20008KT 10/03 A2989 RMK A01 T00980031  RH  063%=      5-min Rain = 0
KES1 080848Z 20009KT 10/03 A2989 RMK A01 T00970030  RH  063%=      5-min Rain = 0
KES1 080849Z 20009KT 10/03 A2989 RMK A01 T00960030  RH  063%=      5-min Rain = 0
KES1 080850Z 21008KT 10/03 A2989 RMK A01 T00970031  RH  063%=      5-min Rain = 0
KES1 080851Z 22010KT 10/03 A2989 RMK A01 T00970031  RH  063%=      5-min Rain = 0
KES1 080852Z 22009KT 10/03 A2989 RMK A01 T00990031  RH  063%=      5-min Rain = 0
KES1 080853Z 21009KT 10/03 A2989 RMK A01 T00990031  RH  063%=      5-min Rain = 0
KES1 080854Z 21009KT 10/03 A2989 RMK A01 T01000031  RH  063%=      5-min Rain = 0
KES1 080855Z 21009KT 10/03 A2989 RMK A01 T01000031  RH  062%=      5-min Rain = 0
KES1 080856Z 21009KT 10/03 A2989 RMK A01 T01010031  RH  062%=      5-min Rain = 0
KES1 080857Z 21009KT 10/03 A2989 RMK A01 T01010031  RH  062%=      5-min Rain = 0
KES1 080858Z 21009KT 10/03 A2989 RMK A01 T01000031  RH  062%=      5-min Rain = 0
KES1 080859Z 21009KT 10/03 A2989 RMK A01 T00990031  RH  062%=      5-min Rain = 0
KES1 080900Z 21009KT 10/03 A2989 RMK A01 T00990031  RH  063%=      5-min Rain = 0
KES1 080901Z 21010KT 10/03 A2989 RMK A01 T00990031  RH  063%=      5-min Rain = 0
KES1 080902Z 21010KT 10/03 A2989 RMK A01 T00990031  RH  062%=      5-min Rain = 0
KES1 080903Z 21010KT 10/03 A2989 RMK A01 T00990031  RH  062%=      5-min Rain = 0
KES1 080904Z 21009KT 10/03 A2989 RMK A01 T00990030  RH  062%=      5-min Rain = 0
KES1 080905Z 21010KT 10/03 A2989 RMK A01 T00990031  RH  062%=      5-min Rain = 0
KES1 080906Z 21009KT 10/03 A2989 RMK A01 T00990030  RH  062%=      5-min Rain = 0
KES1 080907Z 21009KT 10/03 A2989 RMK A01 T00980030  RH  062%=      5-min Rain = 0
KES1 080908Z 21010KT 10/03 A2989 RMK A01 T00980030  RH  063%=      5-min Rain = 0
KES1 080909Z 21009KT 10/03 A2989 RMK A01 T00970030  RH  063%=      5-min Rain = 0
KES1 080910Z 21009KT 10/03 A2988 RMK A01 T00980030  RH  063%=      5-min Rain = 0
KES1 080911Z 22009KT 10/03 A2988 RMK A01 T00970030  RH  063%=      5-min Rain = 0
KES1 080912Z 21009KT 10/03 A2988 RMK A01 T00960030  RH  063%=      5-min Rain = 0
KES1 080913Z 21009KT 10/03 A2988 RMK A01 T00960030  RH  064%=      5-min Rain = 0
KES1 080914Z 21009KT 10/03 A2989 RMK A01 T00950030  RH  064%=      5-min Rain = 0
KES1 080915Z 22008KT 10/03 A2989 RMK A01 T00950030  RH  064%=      5-min Rain = 0
KES1 080916Z 21009KT 10/03 A2989 RMK A01 T00950030  RH  064%=      5-min Rain = 0
KES1 080917Z 21008KT 10/03 A2989 RMK A01 T00950030  RH  064%=      5-min Rain = 0
KES1 080918Z 21008KT 10/03 A2989 RMK A01 T00950030  RH  064%=      5-min Rain = 0
KES1 080919Z 22008KT 09/03 A2989 RMK A01 T00940030  RH  064%=      5-min Rain = 0
KES1 080920Z 21008KT 09/03 A2988 RMK A01 T00940030  RH  064%=      5-min Rain = 0
KES1 080921Z 22008KT 09/03 A2988 RMK A01 T00940030  RH  064%=      5-min Rain = 0
KES1 080922Z 22008KT 10/03 A2988 RMK A01 T00950030  RH  064%=      5-min Rain = 0
KES1 080923Z 22007KT 10/03 A2988 RMK A01 T00960031  RH  064%=      5-min Rain = 0
KES1 080924Z 22007KT 10/03 A2988 RMK A01 T00960031  RH  064%=      5-min Rain = 0
KES1 080925Z 22008KT 10/03 A2988 RMK A01 T00970031  RH  064%=      5-min Rain = 0
KES1 080926Z 22008KT 10/03 A2988 RMK A01 T01000032  RH  063%=      5-min Rain = 0
KES1 080927Z 22008KT 10/03 A2988 RMK A01 T01020033  RH  062%=      5-min Rain = 0
KES1 080928Z 22008KT 10/03 A2988 RMK A01 T01040033  RH  061%=      5-min Rain = 0
KES1 080929Z 22009KT 11/03 A2988 RMK A01 T01050033  RH  061%=      5-min Rain = 0
KES1 080930Z 23009KT 11/03 A2988 RMK A01 T01070033  RH  060%=      5-min Rain = 0
KES1 080931Z 22009KT 11/03 A2988 RMK A01 T01080033  RH  060%=      5-min Rain = 0
KES1 080932Z 23009KT 11/03 A2988 RMK A01 T01090033  RH  060%=      5-min Rain = 0
KES1 080933Z 23009KT 11/03 A2988 RMK A01 T01090034  RH  059%=      5-min Rain = 0
KES1 080934Z 23010KT 11/03 A2988 RMK A01 T01100034  RH  059%=      5-min Rain = 0
KES1 080935Z 23008KT 11/03 A2988 RMK A01 T01110034  RH  059%=      5-min Rain = 0
KES1 080936Z 23008KT 11/03 A2988 RMK A01 T01110034  RH  059%=      5-min Rain = 0
KES1 080937Z 23008KT 11/03 A2988 RMK A01 T01120034  RH  059%=      5-min Rain = 0
KES1 080938Z 23007KT 11/03 A2988 RMK A01 T01120034  RH  059%=      5-min Rain = 0
KES1 080939Z 23008KT 11/03 A2988 RMK A01 T01110033  RH  059%=      5-min Rain = 0
KES1 080940Z 23008KT 11/03 A2988 RMK A01 T01110033  RH  059%=      5-min Rain = 0
KES1 080941Z 23009KT 11/03 A2988 RMK A01 T01110033  RH  059%=      5-min Rain = 0
KES1 080942Z 23009KT 11/03 A2988 RMK A01 T01120033  RH  058%=      5-min Rain = 0
KES1 080943Z 23008KT 11/03 A2988 RMK A01 T01120033  RH  058%=      5-min Rain = 0
KES1 080944Z 23009KT 11/03 A2988 RMK A01 T01110033  RH  059%=      5-min Rain = 0
KES1 080945Z 23010KT 11/03 A2988 RMK A01 T01120033  RH  058%=      5-min Rain = 0
KES1 080946Z 23009KT 11/03 A2988 RMK A01 T01120033  RH  058%=      5-min Rain = 0
KES1 080947Z 23010KT 11/03 A2987 RMK A01 T01130033  RH  058%=      5-min Rain = 0
KES1 080948Z 23009KT 11/03 A2987 RMK A01 T01130033  RH  058%=      5-min Rain = 0
KES1 080949Z 23009KT 11/03 A2987 RMK A01 T01140033  RH  058%=      5-min Rain = 0
KES1 080950Z 23009KT 11/03 A2987 RMK A01 T01130033  RH  058%=      5-min Rain = 0
KES1 080951Z 23009KT 11/03 A2987 RMK A01 T01130033  RH  058%=      5-min Rain = 0
KES1 080952Z 23009KT 11/03 A2987 RMK A01 T01140033  RH  057%=      5-min Rain = 0
KES1 080953Z 23009KT 12/03 A2987 RMK A01 T01150033  RH  057%=      5-min Rain = 0
KES1 080954Z 23008KT 12/03 A2987 RMK A01 T01150033  RH  057%=      5-min Rain = 0
KES1 080955Z 23008KT 12/03 A2987 RMK A01 T01150033  RH  057%=      5-min Rain = 0
KES1 080956Z 23008KT 12/03 A2987 RMK A01 T01150033  RH  057%=      5-min Rain = 0
KES1 080957Z 23010KT 12/03 A2987 RMK A01 T01150033  RH  057%=      5-min Rain = 0
KES1 080958Z 22009KT 12/03 A2987 RMK A01 T01150033  RH  057%=      5-min Rain = 0
KES1 080959Z 23008KT 12/03 A2987 RMK A01 T01160033  RH  057%=      5-min Rain = 0
KES1 081000Z 22008KT 12/03 A2987 RMK A01 T01160033  RH  057%=      5-min Rain = 0
KES1 081001Z 22008KT 12/03 A2987 RMK A01 T01160033  RH  057%=      5-min Rain = 0
KES1 081002Z 23008KT 12/03 A2987 RMK A01 T01170033  RH  056%=      5-min Rain = 0
KES1 081003Z 22007KT 12/03 A2987 RMK A01 T01180033  RH  056%=      5-min Rain = 0
KES1 081004Z 22008KT 12/03 A2986 RMK A01 T01180033  RH  056%=      5-min Rain = 0
KES1 081005Z 22008KT 12/03 A2986 RMK A01 T01190033  RH  055%=      5-min Rain = 0
KES1 081006Z 22007KT 12/03 A2986 RMK A01 T01190033  RH  055%=      5-min Rain = 0
KES1 081007Z 22009KT 12/03 A2986 RMK A01 T01190033  RH  056%=      5-min Rain = 0
KES1 081008Z 22008KT 12/03 A2987 RMK A01 T01190033  RH  056%=      5-min Rain = 0
KES1 081009Z 22009KT 12/03 A2987 RMK A01 T01180033  RH  056%=      5-min Rain = 0
KES1 081010Z 22009KT 12/03 A2987 RMK A01 T01180033  RH  056%=      5-min Rain = 0
KES1 081011Z 22008KT 12/03 A2987 RMK A01 T01180033  RH  056%=      5-min Rain = 0
KES1 081012Z 22007KT 12/03 A2987 RMK A01 T01170033  RH  056%=      5-min Rain = 0
KES1 081013Z 22007KT 12/03 A2987 RMK A01 T01180033  RH  056%=      5-min Rain = 0
KES1 081014Z 22006KT 12/03 A2987 RMK A01 T01180033  RH  056%=      5-min Rain = 0
KES1 081015Z 22005KT 12/03 A2987 RMK A01 T01180033  RH  056%=      5-min Rain = 0
KES1 081016Z 21004KT 12/03 A2986 RMK A01 T01180033  RH  056%=      5-min Rain = 0
KES1 081017Z 22005KT 12/03 A2986 RMK A01 T01170033  RH  056%=      5-min Rain = 0
KES1 081018Z 22006KT 12/03 A2986 RMK A01 T01170033  RH  056%=      5-min Rain = 0
KES1 081019Z 22006KT 12/03 A2986 RMK A01 T01160033  RH  057%=      5-min Rain = 0
KES1 081020Z 21007KT 12/03 A2986 RMK A01 T01160033  RH  057%=      5-min Rain = 0
KES1 081021Z 22007KT 12/03 A2986 RMK A01 T01160033  RH  057%=      5-min Rain = 0
KES1 081022Z 22006KT 12/03 A2986 RMK A01 T01170033  RH  057%=      5-min Rain = 0
KES1 081023Z 21008KT 12/03 A2986 RMK A01 T01170033  RH  057%=      5-min Rain = 0
KES1 081024Z 21007KT 12/03 A2986 RMK A01 T01160033  RH  057%=      5-min Rain = 0
KES1 081025Z 22009KT 12/03 A2986 RMK A01 T01170033  RH  056%=      5-min Rain = 0
KES1 081026Z 21007KT 12/03 A2985 RMK A01 T01170033  RH  056%=      5-min Rain = 0
KES1 081027Z 22006KT 12/03 A2985 RMK A01 T01170034  RH  056%=      5-min Rain = 0
KES1 081028Z 22006KT 12/03 A2985 RMK A01 T01180034  RH  057%=      5-min Rain = 0
KES1 081029Z 22007KT 12/03 A2985 RMK A01 T01170034  RH  056%=      5-min Rain = 0
KES1 081030Z 22006KT 12/03 A2984 RMK A01 T01180034  RH  056%=      5-min Rain = 0
KES1 081031Z 22007KT 12/03 A2984 RMK A01 T01180034  RH  056%=      5-min Rain = 0
KES1 081032Z 22007KT 12/03 A2984 RMK A01 T01180034  RH  056%=      5-min Rain = 0
KES1 081033Z 23007KT 12/03 A2984 RMK A01 T01190034  RH  056%=      5-min Rain = 0
KES1 081034Z 22007KT 12/03 A2984 RMK A01 T01190034  RH  056%=      5-min Rain = 0
KES1 081035Z 22007KT 12/03 A2984 RMK A01 T01190034  RH  056%=      5-min Rain = 0
KES1 081036Z 23007KT 12/03 A2985 RMK A01 T01190034  RH  056%=      5-min Rain = 0
KES1 081037Z 23006KT 12/03 A2985 RMK A01 T01190034  RH  056%=      5-min Rain = 0
KES1 081038Z 24006KT 12/03 A2985 RMK A01 T01190034  RH  056%=      5-min Rain = 0
KES1 081039Z 24006KT 12/03 A2985 RMK A01 T01190034  RH  056%=      5-min Rain = 0
KES1 081040Z 25005KT 12/03 A2985 RMK A01 T01190034  RH  056%=      5-min Rain = 0
KES1 081041Z 25006KT 12/03 A2985 RMK A01 T01190034  RH  056%=      5-min Rain = 0
KES1 081042Z 25006KT 12/03 A2985 RMK A01 T01190034  RH  056%=      5-min Rain = 0
KES1 081043Z 25006KT 12/03 A2985 RMK A01 T01200034  RH  056%=      5-min Rain = 0
KES1 081044Z 24006KT 12/03 A2985 RMK A01 T01200034  RH  056%=      5-min Rain = 0
KES1 081045Z 24006KT 12/03 A2985 RMK A01 T01200034  RH  056%=      5-min Rain = 0
KES1 081046Z 24006KT 12/03 A2985 RMK A01 T01200034  RH  056%=      5-min Rain = 0
KES1 081047Z 24006KT 12/03 A2985 RMK A01 T01200034  RH  056%=      5-min Rain = 0
KES1 081048Z 24006KT 12/03 A2985 RMK A01 T01200034  RH  056%=      5-min Rain = 0
KES1 081049Z 24007KT 12/03 A2985 RMK A01 T01200034  RH  056%=      5-min Rain = 0
KES1 081050Z 25009KT 12/03 A2985 RMK A01 T01200034  RH  056%=      5-min Rain = 0
KES1 081051Z 25008KT 12/03 A2985 RMK A01 T01220034  RH  055%=      5-min Rain = 0
KES1 081052Z 24008KT 12/03 A2985 RMK A01 T01230034  RH  055%=      5-min Rain = 0
KES1 081053Z 24008KT 12/03 A2985 RMK A01 T01230034  RH  055%=      5-min Rain = 0
KES1 081054Z 24010KT 12/03 A2985 RMK A01 T01240034  RH  054%=      5-min Rain = 0
KES1 081055Z 24007KT 13/03 A2985 RMK A01 T01250034  RH  054%=      5-min Rain = 0
KES1 081056Z 24008KT 13/03 A2985 RMK A01 T01250034  RH  054%=      5-min Rain = 0
KES1 081057Z 24007KT 13/03 A2985 RMK A01 T01260034  RH  054%=      5-min Rain = 0
KES1 081058Z 24007KT 13/03 A2985 RMK A01 T01260034  RH  054%=      5-min Rain = 0
KES1 081059Z 24006KT 13/03 A2985 RMK A01 T01260034  RH  054%=      5-min Rain = 0
KES1 081100Z 23006KT 13/03 A2985 RMK A01 T01250034  RH  054%=      5-min Rain = 0
KES1 081101Z 22006KT 13/03 A2985 RMK A01 T01250034  RH  054%=      5-min Rain = 0
KES1 081102Z 22006KT 13/03 A2984 RMK A01 T01250034  RH  054%=      5-min Rain = 0
KES1 081103Z 22006KT 12/03 A2984 RMK A01 T01240034  RH  054%=      5-min Rain = 0
KES1 081104Z 21006KT 12/03 A2984 RMK A01 T01240034  RH  054%=      5-min Rain = 0
KES1 081105Z 20006KT 12/03 A2984 RMK A01 T01230033  RH  054%=      5-min Rain = 0
KES1 081106Z 21007KT 12/03 A2984 RMK A01 T01220033  RH  055%=      5-min Rain = 0
KES1 081107Z 21007KT 12/03 A2984 RMK A01 T01210033  RH  055%=      5-min Rain = 0
KES1 081108Z 21007KT 12/03 A2984 RMK A01 T01200033  RH  055%=      5-min Rain = 0
KES1 081109Z 22007KT 12/03 A2984 RMK A01 T01190033  RH  056%=      5-min Rain = 0
KES1 081110Z 22007KT 12/03 A2984 RMK A01 T01190033  RH  056%=      5-min Rain = 0
KES1 081111Z 21008KT 12/03 A2984 RMK A01 T01190033  RH  056%=      5-min Rain = 0
KES1 081112Z 21007KT 12/03 A2984 RMK A01 T01190033  RH  056%=      5-min Rain = 0
KES1 081113Z 21006KT 12/03 A2984 RMK A01 T01190034  RH  056%=      5-min Rain = 0
KES1 081114Z 20006KT 12/03 A2984 RMK A01 T01190033  RH  056%=      5-min Rain = 0
KES1 081115Z 20005KT 12/03 A2984 RMK A01 T01180033  RH  056%=      5-min Rain = 0
KES1 081116Z 20005KT 12/03 A2984 RMK A01 T01180033  RH  056%=      5-min Rain = 0
KES1 081117Z 20004KT 12/03 A2984 RMK A01 T01170033  RH  056%=      5-min Rain = 0
KES1 081118Z 21004KT 12/03 A2984 RMK A01 T01170033  RH  056%=      5-min Rain = 0
KES1 081119Z 20004KT 12/03 A2984 RMK A01 T01170033  RH  056%=      5-min Rain = 0
KES1 081120Z 20004KT 12/03 A2984 RMK A01 T01160033  RH  056%=      5-min Rain = 0
KES1 081121Z 21005KT 12/03 A2984 RMK A01 T01160033  RH  057%=      5-min Rain = 0
KES1 081122Z 21005KT 12/03 A2984 RMK A01 T01160033  RH  057%=      5-min Rain = 0
KES1 081123Z 21005KT 12/03 A2984 RMK A01 T01160033  RH  057%=      5-min Rain = 0
KES1 081124Z 21005KT 12/03 A2984 RMK A01 T01160033  RH  057%=      5-min Rain = 0
KES1 081125Z 21005KT 12/03 A2984 RMK A01 T01160033  RH  057%=      5-min Rain = 0
KES1 081126Z 21005KT 12/03 A2984 RMK A01 T01160033  RH  057%=      5-min Rain = 0
KES1 081127Z 21005KT 12/03 A2984 RMK A01 T01160033  RH  057%=      5-min Rain = 0
KES1 081128Z 21005KT 12/03 A2984 RMK A01 T01160033  RH  057%=      5-min Rain = 0
KES1 081129Z 21004KT 12/03 A2984 RMK A01 T01160033  RH  057%=      5-min Rain = 0
KES1 081130Z 21005KT 12/03 A2984 RMK A01 T01150033  RH  057%=      5-min Rain = 0
KES1 081131Z 21005KT 12/03 A2984 RMK A01 T01150033  RH  057%=      5-min Rain = 0
KES1 081132Z 21005KT 12/03 A2984 RMK A01 T01150032  RH  057%=      5-min Rain = 0
KES1 081133Z 21005KT 11/03 A2984 RMK A01 T01140032  RH  057%=      5-min Rain = 0
KES1 081134Z 21005KT 11/03 A2984 RMK A01 T01140032  RH  057%=      5-min Rain = 0
KES1 081135Z 22005KT 11/03 A2984 RMK A01 T01140032  RH  057%=      5-min Rain = 0
KES1 081136Z 21005KT 11/03 A2984 RMK A01 T01140032  RH  057%=      5-min Rain = 0
KES1 081137Z 21006KT 11/03 A2984 RMK A01 T01140032  RH  057%=      5-min Rain = 0
KES1 081138Z 21006KT 11/03 A2984 RMK A01 T01140033  RH  057%=      5-min Rain = 0
KES1 081139Z 21006KT 11/03 A2984 RMK A01 T01140033  RH  057%=      5-min Rain = 0
KES1 081140Z 21006KT 11/03 A2984 RMK A01 T01140032  RH  057%=      5-min Rain = 0
KES1 081141Z 22006KT 11/03 A2984 RMK A01 T01140032  RH  057%=      5-min Rain = 0
KES1 081142Z 22007KT 11/03 A2984 RMK A01 T01140032  RH  057%=      5-min Rain = 0
KES1 081143Z 22007KT 11/03 A2984 RMK A01 T01140032  RH  057%=      5-min Rain = 0
KES1 081144Z 22006KT 11/03 A2984 RMK A01 T01140033  RH  057%=      5-min Rain = 0
KES1 081145Z 22006KT 11/03 A2984 RMK A01 T01140032  RH  057%=      5-min Rain = 0
KES1 081146Z 22005KT 11/03 A2984 RMK A01 T01140033  RH  057%=      5-min Rain = 0
KES1 081147Z 22005KT 11/03 A2983 RMK A01 T01140033  RH  057%=      5-min Rain = 0
KES1 081148Z 22005KT 12/03 A2983 RMK A01 T01150033  RH  057%=      5-min Rain = 0
KES1 081149Z 22005KT 12/03 A2983 RMK A01 T01150033  RH  057%=      5-min Rain = 0
KES1 081150Z 22005KT 12/03 A2984 RMK A01 T01150033  RH  057%=      5-min Rain = 0
KES1 081151Z 22005KT 12/03 A2984 RMK A01 T01150033  RH  057%=      5-min Rain = 0
KES1 081152Z 22005KT 12/03 A2984 RMK A01 T01150033  RH  057%=      5-min Rain = 0
KES1 081153Z 22004KT 11/03 A2984 RMK A01 T01140033  RH  057%=      5-min Rain = 0
KES1 081154Z 22004KT 11/03 A2984 RMK A01 T01140032  RH  057%=      5-min Rain = 0
KES1 081155Z 21004KT 11/03 A2983 RMK A01 T01140033  RH  057%=      5-min Rain = 0
KES1 081156Z 21004KT 11/03 A2983 RMK A01 T01140032  RH  057%=      5-min Rain = 0
KES1 081157Z 20004KT 11/03 A2983 RMK A01 T01130032  RH  057%=      5-min Rain = 0
KES1 081158Z 21004KT 11/03 A2983 RMK A01 T01130032  RH  058%=      5-min Rain = 0
KES1 081159Z 21004KT 11/03 A2984 RMK A01 T01130032  RH  058%=      5-min Rain = 0
KES1 081200Z 20004KT 11/03 A2984 RMK A01 T01120032  RH  058%=      5-min Rain = 0
KES1 081201Z 21004KT 11/03 A2984 RMK A01 T01120032  RH  058%=      5-min Rain = 0
KES1 081202Z 21004KT 11/03 A2983 RMK A01 T01120032  RH  058%=      5-min Rain = 0
KES1 081203Z 21004KT 11/03 A2983 RMK A01 T01120032  RH  058%=      5-min Rain = 0
KES1 081204Z 21004KT 11/03 A2983 RMK A01 T01120032  RH  058%=      5-min Rain = 0
KES1 081205Z 20004KT 11/03 A2983 RMK A01 T01130032  RH  058%=      5-min Rain = 0
KES1 081206Z 20004KT 11/03 A2983 RMK A01 T01140033  RH  057%=      5-min Rain = 0
KES1 081207Z 20004KT 11/03 A2983 RMK A01 T01140032  RH  057%=      5-min Rain = 0
KES1 081208Z 20004KT 11/03 A2983 RMK A01 T01140032  RH  057%=      5-min Rain = 0
KES1 081209Z 20004KT 11/03 A2983 RMK A01 T01140033  RH  057%=      5-min Rain = 0
KES1 081210Z 20004KT 11/03 A2983 RMK A01 T01140033  RH  057%=      5-min Rain = 0
KES1 081211Z 20004KT 11/03 A2983 RMK A01 T01140032  RH  057%=      5-min Rain = 0
KES1 081212Z 21004KT 11/03 A2983 RMK A01 T01140032  RH  057%=      5-min Rain = 0
KES1 081213Z 22004KT 11/03 A2984 RMK A01 T01140032  RH  057%=      5-min Rain = 0
KES1 081214Z 21005KT 11/03 A2984 RMK A01 T01140032  RH  057%=      5-min Rain = 0
KES1 081215Z 20005KT 11/03 A2983 RMK A01 T01140033  RH  057%=      5-min Rain = 0
KES1 081216Z 20005KT 11/03 A2984 RMK A01 T01140033  RH  058%=      5-min Rain = 0
KES1 081217Z 21006KT 11/03 A2984 RMK A01 T01130033  RH  058%=      5-min Rain = 0
KES1 081218Z 21006KT 11/03 A2984 RMK A01 T01140033  RH  058%=      5-min Rain = 0
KES1 081219Z 21005KT 11/03 A2984 RMK A01 T01140033  RH  057%=      5-min Rain = 0
KES1 081220Z 22004KT 11/03 A2984 RMK A01 T01140033  RH  057%=      5-min Rain = 0
KES1 081221Z 22005KT 11/03 A2984 RMK A01 T01140033  RH  058%=      5-min Rain = 0
KES1 081222Z 21005KT 11/03 A2984 RMK A01 T01130033  RH  058%=      5-min Rain = 0
KES1 081223Z 21004KT 11/03 A2984 RMK A01 T01120033  RH  058%=      5-min Rain = 0
KES1 081224Z 20003KT 11/03 A2984 RMK A01 T01110033  RH  058%=      5-min Rain = 0
KES1 081225Z 22004KT 11/03 A2984 RMK A01 T01110033  RH  059%=      5-min Rain = 0
KES1 081226Z 22003KT 11/03 A2984 RMK A01 T01100033  RH  059%=      5-min Rain = 0
KES1 081227Z 20004KT 11/03 A2984 RMK A01 T01090032  RH  059%=      5-min Rain = 0
KES1 081228Z 19006KT 11/03 A2984 RMK A01 T01080032  RH  059%=      5-min Rain = 0
KES1 081229Z 20005KT 11/03 A2984 RMK A01 T01070032  RH  060%=      5-min Rain = 0
KES1 081230Z 21005KT 11/03 A2984 RMK A01 T01070033  RH  060%=      5-min Rain = 0
KES1 081231Z 21005KT 11/03 A2984 RMK A01 T01070033  RH  060%=      5-min Rain = 0
KES1 081232Z 21005KT 11/03 A2984 RMK A01 T01060033  RH  060%=      5-min Rain = 0
KES1 081233Z 21007KT 11/03 A2984 RMK A01 T01060033  RH  061%=      5-min Rain = 0
KES1 081234Z 20007KT 11/03 A2984 RMK A01 T01050034  RH  061%=      5-min Rain = 0
KES1 081235Z 21007KT 11/03 A2984 RMK A01 T01060034  RH  061%=      5-min Rain = 0
KES1 081236Z 21008KT 11/03 A2984 RMK A01 T01060034  RH  061%=      5-min Rain = 0
KES1 081237Z 20007KT 11/04 A2984 RMK A01 T01060035  RH  061%=      5-min Rain = 0
KES1 081238Z 20007KT 11/04 A2983 RMK A01 T01060035  RH  061%=      5-min Rain = 0
KES1 081239Z 20007KT 11/04 A2984 RMK A01 T01060035  RH  061%=      5-min Rain = 0
KES1 081240Z 20005KT 11/04 A2984 RMK A01 T01070035  RH  061%=      5-min Rain = 0
KES1 081241Z 20006KT 11/04 A2983 RMK A01 T01070035  RH  061%=      5-min Rain = 0
KES1 081242Z 20006KT 11/04 A2984 RMK A01 T01060035  RH  061%=      5-min Rain = 0
KES1 081243Z 21006KT 11/04 A2984 RMK A01 T01060035  RH  061%=      5-min Rain = 0
KES1 081244Z 20006KT 11/03 A2983 RMK A01 T01060034  RH  061%=      5-min Rain = 0
KES1 081245Z 20007KT 11/03 A2983 RMK A01 T01050034  RH  061%=      5-min Rain = 0
KES1 081246Z 20007KT 11/03 A2983 RMK A01 T01060034  RH  061%=      5-min Rain = 0
KES1 081247Z 20007KT 11/03 A2983 RMK A01 T01060034  RH  061%=      5-min Rain = 0
KES1 081248Z 20007KT 11/03 A2983 RMK A01 T01060034  RH  061%=      5-min Rain = 0
KES1 081249Z 20007KT 11/04 A2983 RMK A01 T01060035  RH  061%=      5-min Rain = 0
KES1 081250Z 20008KT 11/03 A2983 RMK A01 T01050034  RH  061%=      5-min Rain = 0
KES1 081251Z 19008KT 11/03 A2983 RMK A01 T01060034  RH  061%=      5-min Rain = 0
KES1 081252Z 20007KT 11/03 A2983 RMK A01 T01050034  RH  061%=      5-min Rain = 0
KES1 081253Z 19007KT 11/03 A2983 RMK A01 T01060034  RH  061%=      5-min Rain = 0
KES1 081254Z 20008KT 11/04 A2983 RMK A01 T01060035  RH  061%=      5-min Rain = 0
KES1 081255Z 20009KT 11/03 A2983 RMK A01 T01050034  RH  061%=      5-min Rain = 0
KES1 081256Z 20009KT 11/03 A2983 RMK A01 T01050034  RH  061%=      5-min Rain = 0
KES1 081257Z 20008KT 11/03 A2983 RMK A01 T01050034  RH  061%=      5-min Rain = 0
KES1 081258Z 20008KT 11/03 A2983 RMK A01 T01050034  RH  062%=      5-min Rain = 0
KES1 081259Z 20009KT 11/03 A2983 RMK A01 T01050034  RH  062%=      5-min Rain = 0
KES1 081300Z 20010KT 11/04 A2983 RMK A01 T01050035  RH  062%=      5-min Rain = 0
KES1 081301Z 20010KT 11/04 A2983 RMK A01 T01050035  RH  062%=      5-min Rain = 0
KES1 081302Z 19009KT 11/03 A2983 RMK A01 T01060034  RH  061%=      5-min Rain = 0
KES1 081303Z 19010KT 11/04 A2983 RMK A01 T01070035  RH  061%=      5-min Rain = 0
KES1 081304Z 19010KT 11/04 A2983 RMK A01 T01070035  RH  061%=      5-min Rain = 0
KES1 081305Z 19009KT 11/04 A2983 RMK A01 T01070035  RH  061%=      5-min Rain = 0
KES1 081306Z 19009KT 11/03 A2983 RMK A01 T01070034  RH  061%=      5-min Rain = 0
KES1 081307Z 19009KT 11/03 A2983 RMK A01 T01080034  RH  061%=      5-min Rain = 0
KES1 081308Z 19009KT 11/04 A2983 RMK A01 T01080035  RH  061%=      5-min Rain = 0
KES1 081309Z 19009KT 11/03 A2983 RMK A01 T01080034  RH  060%=      5-min Rain = 0
KES1 081310Z 19011KT 11/03 A2983 RMK A01 T01080034  RH  060%=      5-min Rain = 0
KES1 081311Z 19011KT 11/03 A2983 RMK A01 T01080034  RH  060%=      5-min Rain = 0
KES1 081312Z 19010KT 11/03 A2983 RMK A01 T01080034  RH  060%=      5-min Rain = 0
KES1 081313Z 19012KT 11/04 A2983 RMK A01 T01080035  RH  060%=      5-min Rain = 0
KES1 081314Z 19011KT 11/04 A2983 RMK A01 T01090035  RH  060%=      5-min Rain = 0
KES1 081315Z 20009KT 11/04 A2983 RMK A01 T01100035  RH  060%=      5-min Rain = 0
KES1 081316Z 20010KT 11/04 A2983 RMK A01 T01090035  RH  060%=      5-min Rain = 0
KES1 081317Z 20010KT 11/04 A2983 RMK A01 T01100035  RH  060%=      5-min Rain = 0
KES1 081318Z 20010KT 11/03 A2982 RMK A01 T01100034  RH  060%=      5-min Rain = 0
KES1 081319Z 20010KT 11/04 A2983 RMK A01 T01100035  RH  060%=      5-min Rain = 0
KES1 081320Z 20010KT 11/04 A2983 RMK A01 T01100035  RH  060%=      5-min Rain = 0
KES1 081321Z 20012KT 11/04 A2983 RMK A01 T01120035  RH  059%=      5-min Rain = 0
KES1 081322Z 20010KT 11/04 A2983 RMK A01 T01130035  RH  059%=      5-min Rain = 0
KES1 081323Z 20010KT 11/04 A2983 RMK A01 T01140035  RH  058%=      5-min Rain = 0
KES1 081324Z 21011KT 11/04 A2983 RMK A01 T01140035  RH  058%=      5-min Rain = 0
KES1 081325Z 21011KT 11/04 A2983 RMK A01 T01140035  RH  058%=      5-min Rain = 0
KES1 081326Z 21010KT 11/04 A2983 RMK A01 T01140035  RH  058%=      5-min Rain = 0
KES1 081327Z 21011KT 11/04 A2983 RMK A01 T01130035  RH  058%=      5-min Rain = 0
KES1 081328Z 21010KT 11/04 A2983 RMK A01 T01130035  RH  059%=      5-min Rain = 0
KES1 081329Z 20010KT 11/04 A2983 RMK A01 T01130035  RH  059%=      5-min Rain = 0
KES1 081330Z 20011KT 11/04 A2983 RMK A01 T01130035  RH  059%=      5-min Rain = 0
KES1 081331Z 20011KT 11/04 A2983 RMK A01 T01120035  RH  059%=      5-min Rain = 0
KES1 081332Z 21009KT 11/04 A2983 RMK A01 T01130035  RH  059%=      5-min Rain = 0
KES1 081333Z 21010KT 11/04 A2983 RMK A01 T01130035  RH  059%=      5-min Rain = 0
KES1 081334Z 20011KT 11/04 A2982 RMK A01 T01130035  RH  059%=      5-min Rain = 0
KES1 081335Z 20011KT 11/04 A2982 RMK A01 T01140035  RH  058%=      5-min Rain = 0
KES1 081336Z 20011KT 11/04 A2982 RMK A01 T01140035  RH  058%=      5-min Rain = 0
KES1 081337Z 20011KT 12/04 A2982 RMK A01 T01150035  RH  058%=      5-min Rain = 0
KES1 081338Z 20011KT 12/04 A2982 RMK A01 T01160035  RH  058%=      5-min Rain = 0
KES1 081339Z 20010KT 12/04 A2982 RMK A01 T01150035  RH  058%=      5-min Rain = 0
KES1 081340Z 20010KT 11/04 A2982 RMK A01 T01140035  RH  058%=      5-min Rain = 0
KES1 081341Z 20010KT 12/04 A2982 RMK A01 T01150035  RH  058%=      5-min Rain = 0
KES1 081342Z 20010KT 12/04 A2982 RMK A01 T01150035  RH  058%=      5-min Rain = 0
KES1 081343Z 21010KT 12/04 A2982 RMK A01 T01150035  RH  058%=      5-min Rain = 0
KES1 081344Z 20010KT 12/04 A2982 RMK A01 T01160035  RH  058%=      5-min Rain = 0
KES1 081345Z 21009KT 12/04 A2982 RMK A01 T01170036  RH  057%=      5-min Rain = 0
KES1 081346Z 20010KT 12/04 A2982 RMK A01 T01170036  RH  057%=      5-min Rain = 0
KES1 081347Z 21009KT 12/04 A2982 RMK A01 T01170036  RH  057%=      5-min Rain = 0
KES1 081348Z 21008KT 12/04 A2982 RMK A01 T01180036  RH  057%=      5-min Rain = 0
KES1 081349Z 21009KT 12/04 A2982 RMK A01 T01180036  RH  057%=      5-min Rain = 0
KES1 081350Z 21009KT 12/04 A2982 RMK A01 T01180036  RH  057%=      5-min Rain = 0
KES1 081351Z 21007KT 12/04 A2982 RMK A01 T01180036  RH  057%=      5-min Rain = 0
KES1 081352Z 21008KT 12/04 A2982 RMK A01 T01190036  RH  057%=      5-min Rain = 0
KES1 081353Z 21008KT 12/04 A2982 RMK A01 T01190037  RH  057%=      5-min Rain = 0
KES1 081354Z 22008KT 12/04 A2982 RMK A01 T01190037  RH  057%=      5-min Rain = 0
KES1 081355Z 22008KT 12/04 A2982 RMK A01 T01200036  RH  057%=      5-min Rain = 0
KES1 081356Z 22007KT 12/04 A2982 RMK A01 T01210037  RH  056%=      5-min Rain = 0
KES1 081357Z 21008KT 12/04 A2982 RMK A01 T01210037  RH  056%=      5-min Rain = 0
KES1 081358Z 22007KT 12/04 A2982 RMK A01 T01220037  RH  056%=      5-min Rain = 0
KES1 081359Z 21007KT 12/04 A2982 RMK A01 T01220037  RH  056%=      5-min Rain = 0
KES1 081400Z 22008KT 12/04 A2982 RMK A01 T01220037  RH  056%=      5-min Rain = 0
KES1 081401Z 22007KT 12/04 A2982 RMK A01 T01220037  RH  056%=      5-min Rain = 0
KES1 081402Z 22007KT 12/04 A2982 RMK A01 T01220037  RH  056%=      5-min Rain = 0
KES1 081403Z 23007KT 12/04 A2982 RMK A01 T01230037  RH  056%=      5-min Rain = 0
KES1 081404Z 23007KT 12/04 A2982 RMK A01 T01230037  RH  056%=      5-min Rain = 0
KES1 081405Z 23006KT 12/04 A2982 RMK A01 T01230038  RH  056%=      5-min Rain = 0
KES1 081406Z 24007KT 12/04 A2982 RMK A01 T01230037  RH  056%=      5-min Rain = 0
KES1 081407Z 23007KT 12/04 A2982 RMK A01 T01240037  RH  056%=      5-min Rain = 0
KES1 081408Z 23007KT 12/04 A2982 RMK A01 T01240037  RH  055%=      5-min Rain = 0
KES1 081409Z 23007KT 13/04 A2982 RMK A01 T01250037  RH  055%=      5-min Rain = 0
KES1 081410Z 24007KT 13/04 A2982 RMK A01 T01260037  RH  055%=      5-min Rain = 0
KES1 081411Z 24007KT 13/04 A2982 RMK A01 T01260037  RH  054%=      5-min Rain = 0
KES1 081412Z 24006KT 13/04 A2982 RMK A01 T01270037  RH  054%=      5-min Rain = 0
KES1 081413Z 24007KT 13/04 A2982 RMK A01 T01270037  RH  054%=      5-min Rain = 0
KES1 081414Z 24006KT 13/04 A2982 RMK A01 T01270037  RH  054%=      5-min Rain = 0
KES1 081415Z 23006KT 13/04 A2982 RMK A01 T01270037  RH  054%=      5-min Rain = 0
KES1 081416Z 24007KT 13/04 A2982 RMK A01 T01270037  RH  054%=      5-min Rain = 0
KES1 081417Z 24006KT 13/04 A2982 RMK A01 T01270037  RH  054%=      5-min Rain = 0
KES1 081418Z 23007KT 13/04 A2982 RMK A01 T01270038  RH  054%=      5-min Rain = 0
KES1 081419Z 23006KT 13/04 A2982 RMK A01 T01270038  RH  054%=      5-min Rain = 0
KES1 081420Z 23006KT 13/04 A2982 RMK A01 T01270038  RH  055%=      5-min Rain = 0
KES1 081421Z 23008KT 13/04 A2982 RMK A01 T01260037  RH  055%=      5-min Rain = 0
KES1 081422Z 23007KT 13/04 A2982 RMK A01 T01270037  RH  054%=      5-min Rain = 0
KES1 081423Z 23007KT 13/04 A2982 RMK A01 T01270037  RH  054%=      5-min Rain = 0
KES1 081424Z 24008KT 13/04 A2982 RMK A01 T01270038  RH  055%=      5-min Rain = 0
KES1 081425Z 23007KT 13/04 A2982 RMK A01 T01270038  RH  055%=      5-min Rain = 0
KES1 081426Z 23007KT 13/04 A2982 RMK A01 T01260037  RH  055%=      5-min Rain = 0
KES1 081427Z 23008KT 13/04 A2982 RMK A01 T01270037  RH  055%=      5-min Rain = 0
KES1 081428Z 24007KT 13/04 A2982 RMK A01 T01270037  RH  055%=      5-min Rain = 0
KES1 081429Z 24007KT 13/04 A2982 RMK A01 T01270038  RH  055%=      5-min Rain = 0
KES1 081430Z 24007KT 13/04 A2982 RMK A01 T01270038  RH  055%=      5-min Rain = 0
KES1 081431Z 24007KT 13/04 A2982 RMK A01 T01270038  RH  055%=      5-min Rain = 0
KES1 081432Z 24007KT 13/04 A2982 RMK A01 T01280038  RH  054%=      5-min Rain = 0
KES1 081433Z 24007KT 13/04 A2982 RMK A01 T01280038  RH  054%=      5-min Rain = 0
KES1 081434Z 24007KT 13/04 A2982 RMK A01 T01290039  RH  054%=      5-min Rain = 0
KES1 081435Z 24006KT 13/04 A2982 RMK A01 T01290039  RH  054%=      5-min Rain = 0
KES1 081436Z 24006KT 13/04 A2981 RMK A01 T01290039  RH  054%=      5-min Rain = 0
KES1 081437Z 24006KT 13/04 A2981 RMK A01 T01290039  RH  054%=      5-min Rain = 0
KES1 081438Z 25006KT 13/04 A2981 RMK A01 T01290039  RH  054%=      5-min Rain = 0
KES1 081439Z 25005KT 13/04 A2981 RMK A01 T01290039  RH  054%=      5-min Rain = 0
KES1 081440Z 24005KT 13/04 A2981 RMK A01 T01290040  RH  054%=      5-min Rain = 0
KES1 081441Z 24005KT 13/04 A2981 RMK A01 T01290040  RH  054%=      5-min Rain = 0
KES1 081442Z 23005KT 13/04 A2981 RMK A01 T01300040  RH  054%=      5-min Rain = 0
KES1 081443Z 23005KT 13/04 A2981 RMK A01 T01290040  RH  055%=      5-min Rain = 0
KES1 081444Z 23004KT 13/04 A2981 RMK A01 T01300040  RH  054%=      5-min Rain = 0
KES1 081445Z 22004KT 13/04 A2981 RMK A01 T01300040  RH  054%=      5-min Rain = 0
KES1 081446Z 22004KT 13/04 A2981 RMK A01 T01300040  RH  054%=      5-min Rain = 0
KES1 081447Z 21004KT 13/04 A2981 RMK A01 T01310040  RH  054%=      5-min Rain = 0
KES1 081448Z 21004KT 13/04 A2981 RMK A01 T01310040  RH  054%=      5-min Rain = 0
KES1 081449Z 20004KT 13/04 A2981 RMK A01 T01320040  RH  054%=      5-min Rain = 0
KES1 081450Z 20004KT 13/04 A2981 RMK A01 T01320040  RH  054%=      5-min Rain = 0
KES1 081451Z 20004KT 13/04 A2981 RMK A01 T01330041  RH  054%=      5-min Rain = 0
KES1 081452Z 21003KT 13/04 A2981 RMK A01 T01330041  RH  053%=      5-min Rain = 0
KES1 081453Z 21002KT 13/04 A2981 RMK A01 T01340041  RH  053%=      5-min Rain = 0
KES1 081454Z 21001KT 13/04 A2981 RMK A01 T01340040  RH  053%=      5-min Rain = 0
KES1 081455Z 20001KT 14/04 A2981 RMK A01 T01350040  RH  053%=      5-min Rain = 0
KES1 081456Z 20002KT 14/04 A2981 RMK A01 T01350041  RH  053%=      5-min Rain = 0
KES1 081457Z 21002KT 14/04 A2981 RMK A01 T01350041  RH  053%=      5-min Rain = 0
KES1 081458Z 23002KT 14/04 A2981 RMK A01 T01350042  RH  053%=      5-min Rain = 0
KES1 081459Z 22002KT 14/04 A2981 RMK A01 T01350043  RH  054%=      5-min Rain = 0
KES1 081500Z 21003KT 14/04 A2981 RMK A01 T01350042  RH  053%=      5-min Rain = 0
KES1 081501Z 20003KT 14/04 A2981 RMK A01 T01370042  RH  053%=      5-min Rain = 0
KES1 081502Z 19003KT 14/04 A2981 RMK A01 T01370042  RH  053%=      5-min Rain = 0
KES1 081503Z 18004KT 14/04 A2981 RMK A01 T01380042  RH  052%=      5-min Rain = 0
KES1 081504Z 20005KT 14/04 A2981 RMK A01 T01390043  RH  052%=      5-min Rain = 0
KES1 081505Z 19005KT 14/04 A2981 RMK A01 T01390043  RH  052%=      5-min Rain = 0
KES1 081506Z 20006KT 14/04 A2981 RMK A01 T01390042  RH  052%=      5-min Rain = 0
KES1 081507Z 19006KT 14/04 A2981 RMK A01 T01400042  RH  052%=      5-min Rain = 0
KES1 081508Z 20005KT 14/04 A2981 RMK A01 T01400042  RH  052%=      5-min Rain = 0
KES1 081509Z 20005KT 14/04 A2981 RMK A01 T01410043  RH  052%=      5-min Rain = 0
KES1 081510Z 20007KT 14/04 A2981 RMK A01 T01420042  RH  051%=      5-min Rain = 0
KES1 081511Z 20006KT 15/04 A2981 RMK A01 T01450043  RH  050%=      5-min Rain = 0
KES1 081512Z 20006KT 15/04 A2981 RMK A01 T01460043  RH  050%=      5-min Rain = 0
KES1 081513Z 20006KT 15/04 A2981 RMK A01 T01480044  RH  050%=      5-min Rain = 0
KES1 081514Z 21007KT 15/04 A298 RMK A01 T01500043  RH  049%=      5-min Rain = 0
KES1 081515Z 20006KT 15/04 A298 RMK A01 T01510043  RH  049%=      5-min Rain = 0
KES1 081516Z 21006KT 15/04 A2981 RMK A01 T01510044  RH  049%=      5-min Rain = 0
KES1 081517Z 21007KT 15/04 A2981 RMK A01 T01520044  RH  048%=      5-min Rain = 0
KES1 081518Z 21005KT 15/05 A2981 RMK A01 T01530045  RH  049%=      5-min Rain = 0
KES1 081519Z 21005KT 15/05 A2981 RMK A01 T01530046  RH  049%=      5-min Rain = 0
KES1 081520Z 20005KT 15/05 A2981 RMK A01 T01540046  RH  049%=      5-min Rain = 0
KES1 081521Z 21006KT 15/05 A2981 RMK A01 T01540046  RH  048%=      5-min Rain = 0
KES1 081522Z 21006KT 16/05 A2981 RMK A01 T01550046  RH  048%=      5-min Rain = 0
KES1 081523Z 21005KT 16/05 A2981 RMK A01 T01550046  RH  048%=      5-min Rain = 0
KES1 081524Z 21005KT 16/05 A2981 RMK A01 T01550046  RH  048%=      5-min Rain = 0
KES1 081525Z 21005KT 16/05 A2981 RMK A01 T01550046  RH  048%=      5-min Rain = 0
KES1 081526Z 22005KT 16/05 A2981 RMK A01 T01550046  RH  048%=      5-min Rain = 0
KES1 081527Z 20005KT 16/05 A2981 RMK A01 T01550046  RH  048%=      5-min Rain = 0
KES1 081528Z 20005KT 16/05 A2981 RMK A01 T01560045  RH  048%=      5-min Rain = 0
KES1 081529Z 21004KT 16/05 A2981 RMK A01 T01560045  RH  047%=      5-min Rain = 0
KES1 081530Z 23003KT 16/05 A2981 RMK A01 T01560046  RH  048%=      5-min Rain = 0
KES1 081531Z 24003KT 16/05 A2981 RMK A01 T01570046  RH  048%=      5-min Rain = 0
KES1 081532Z 23003KT 16/05 A2981 RMK A01 T01570047  RH  048%=      5-min Rain = 0
KES1 081533Z 23003KT 16/05 A2981 RMK A01 T01570048  RH  048%=      5-min Rain = 0
KES1 081534Z 22003KT 16/05 A2981 RMK A01 T01580047  RH  048%=      5-min Rain = 0
KES1 081535Z 23003KT 16/05 A2981 RMK A01 T01580047  RH  048%=      5-min Rain = 0
KES1 081536Z 22002KT 16/05 A2981 RMK A01 T01590049  RH  048%=      5-min Rain = 0
KES1 081537Z 23002KT 16/05 A2981 RMK A01 T01590048  RH  048%=      5-min Rain = 0
KES1 081538Z 21004KT 16/05 A2981 RMK A01 T01600049  RH  048%=      5-min Rain = 0
KES1 081539Z 21004KT 16/05 A2981 RMK A01 T01610047  RH  047%=      5-min Rain = 0
KES1 081540Z 21004KT 16/05 A2981 RMK A01 T01600048  RH  047%=      5-min Rain = 0
KES1 081541Z 21006KT 16/05 A2981 RMK A01 T01600047  RH  047%=      5-min Rain = 0
KES1 081542Z 21006KT 16/05 A2981 RMK A01 T01610047  RH  047%=      5-min Rain = 0
KES1 081543Z 21004KT 16/05 A2981 RMK A01 T01610047  RH  047%=      5-min Rain = 0
KES1 081544Z 20005KT 16/05 A2981 RMK A01 T01610048  RH  047%=      5-min Rain = 0
KES1 081545Z 20005KT 16/05 A2981 RMK A01 T01610047  RH  047%=      5-min Rain = 0
KES1 081546Z 20005KT 16/05 A2981 RMK A01 T01610047  RH  047%=      5-min Rain = 0
KES1 081547Z 20005KT 16/05 A2982 RMK A01 T01620047  RH  046%=      5-min Rain = 0
KES1 081548Z 20006KT 16/05 A2982 RMK A01 T01620046  RH  046%=      5-min Rain = 0
KES1 081549Z 20007KT 16/05 A2982 RMK A01 T01630046  RH  046%=      5-min Rain = 0
KES1 081550Z 20006KT 16/05 A2982 RMK A01 T01630046  RH  046%=      5-min Rain = 0
KES1 081551Z 20007KT 16/05 A2982 RMK A01 T01630047  RH  046%=      5-min Rain = 0
KES1 081552Z 20007KT 16/05 A2982 RMK A01 T01640048  RH  046%=      5-min Rain = 0
KES1 081553Z 20006KT 17/05 A2982 RMK A01 T01650048  RH  046%=      5-min Rain = 0
KES1 081554Z 19005KT 17/05 A2982 RMK A01 T01650048  RH  046%=      5-min Rain = 0
KES1 081555Z 20005KT 17/05 A2982 RMK A01 T01650049  RH  046%=      5-min Rain = 0
KES1 081556Z 19005KT 17/05 A2981 RMK A01 T01660048  RH  046%=      5-min Rain = 0
KES1 081557Z 20006KT 17/05 A2982 RMK A01 T01660049  RH  046%=      5-min Rain = 0
KES1 081558Z 20006KT 17/05 A2982 RMK A01 T01670049  RH  046%=      5-min Rain = 0
KES1 081559Z 20006KT 17/05 A2982 RMK A01 T01670049  RH  046%=      5-min Rain = 0
KES1 081600Z 20006KT 17/05 A2982 RMK A01 T01670049  RH  045%=      5-min Rain = 0
KES1 081601Z 20006KT 17/05 A2982 RMK A01 T01670049  RH  046%=      5-min Rain = 0
KES1 081602Z 20005KT 17/05 A2982 RMK A01 T01680050  RH  046%=      5-min Rain = 0
KES1 081603Z 20006KT 17/05 A2981 RMK A01 T01690050  RH  045%=      5-min Rain = 0
KES1 081604Z 20006KT 17/05 A2981 RMK A01 T01690050  RH  045%=      5-min Rain = 0
KES1 081605Z 20005KT 17/05 A2981 RMK A01 T01700050  RH  045%=      5-min Rain = 0
KES1 081606Z 20005KT 17/05 A2981 RMK A01 T01710050  RH  045%=      5-min Rain = 0
KES1 081607Z 20005KT 17/05 A2981 RMK A01 T01720050  RH  045%=      5-min Rain = 0
KES1 081608Z 20005KT 17/05 A2981 RMK A01 T01730050  RH  044%=      5-min Rain = 0
KES1 081609Z 20005KT 17/05 A2981 RMK A01 T01740052  RH  045%=      5-min Rain = 0
KES1 081610Z 20005KT 17/05 A2981 RMK A01 T01740051  RH  044%=      5-min Rain = 0
KES1 081611Z 21006KT 17/05 A2981 RMK A01 T01740051  RH  044%=      5-min Rain = 0
KES1 081612Z 22005KT 17/05 A2981 RMK A01 T01740051  RH  044%=      5-min Rain = 0
KES1 081613Z 22007KT 17/05 A2981 RMK A01 T01740051  RH  044%=      5-min Rain = 0
KES1 081614Z 23008KT 17/05 A2981 RMK A01 T01740049  RH  044%=      5-min Rain = 0
KES1 081615Z 23007KT 18/05 A2981 RMK A01 T01750049  RH  043%=      5-min Rain = 0
KES1 081616Z 22006KT 18/05 A2981 RMK A01 T01760050  RH  043%=      5-min Rain = 0
KES1 081617Z 24008KT 18/05 A2981 RMK A01 T01760049  RH  043%=      5-min Rain = 0
KES1 081618Z 24009KT 18/05 A2981 RMK A01 T01780046  RH  042%=      5-min Rain = 0
KES1 081619Z 25008KT 18/05 A2981 RMK A01 T01810046  RH  041%=      5-min Rain = 0
KES1 081620Z 25008KT 18/05 A2981 RMK A01 T01830045  RH  040%=      5-min Rain = 0
KES1 081621Z 25009KT 19/04 A2981 RMK A01 T01860044  RH  039%=      5-min Rain = 0
KES1 081622Z 25008KT 19/04 A2981 RMK A01 T01870042  RH  038%=      5-min Rain = 0
KES1 081623Z 25007KT 19/04 A2981 RMK A01 T01890043  RH  038%=      5-min Rain = 0
KES1 081624Z 26008KT 19/04 A2981 RMK A01 T01910044  RH  038%=      5-min Rain = 0
KES1 081625Z 25011KT 19/04 A2981 RMK A01 T01930043  RH  037%=      5-min Rain = 0
KES1 081626Z 26010KT 20/04 A2981 RMK A01 T01950043  RH  037%=      5-min Rain = 0
KES1 081627Z 26010KT 20/04 A2981 RMK A01 T01970044  RH  036%=      5-min Rain = 0
KES1 081628Z 25009KT 20/04 A2981 RMK A01 T01980044  RH  036%=      5-min Rain = 0
KES1 081629Z 25013G18KT 20/04 A2981 RMK A01 T01990042  RH  036%=      5-min Rain = 0
KES1 081630Z 26010KT 20/04 A2981 RMK A01 T01980042  RH  036%=      5-min Rain = 0
KES1 081631Z 25012G17KT 20/04 A2981 RMK A01 T01990043  RH  036%=      5-min Rain = 0
KES1 081632Z 26012KT 20/04 A2981 RMK A01 T01980041  RH  036%=      5-min Rain = 0
KES1 081633Z 26009KT 20/04 A2981 RMK A01 T01980043  RH  036%=      5-min Rain = 0
KES1 081634Z 25010KT 20/04 A2981 RMK A01 T01990043  RH  036%=      5-min Rain = 0
KES1 081635Z 25009KT 20/04 A298 RMK A01 T01990041  RH  035%=      5-min Rain = 0
KES1 081636Z 26010KT 20/04 A298 RMK A01 T01980041  RH  036%=      5-min Rain = 0
KES1 081637Z 26012KT 20/04 A298 RMK A01 T01990042  RH  035%=      5-min Rain = 0
KES1 081638Z 26010KT 20/04 A298 RMK A01 T01990042  RH  035%=      5-min Rain = 0
KES1 081639Z 26008KT 20/04 A298 RMK A01 T02000042  RH  035%=      5-min Rain = 0
KES1 081640Z 27008KT 20/04 A298 RMK A01 T02000042  RH  035%=      5-min Rain = 0
KES1 081641Z 26007KT 20/04 A298 RMK A01 T02010043  RH  035%=      5-min Rain = 0
KES1 081642Z 27009KT 20/04 A298 RMK A01 T02010043  RH  035%=      5-min Rain = 0
KES1 081643Z 25009KT 20/04 A298 RMK A01 T02010042  RH  035%=      5-min Rain = 0
KES1 081644Z 25013KT 20/04 A298 RMK A01 T02010042  RH  035%=      5-min Rain = 0
KES1 081645Z 25014KT 20/04 A298 RMK A01 T02010040  RH  034%=      5-min Rain = 0
KES1 081646Z 25014KT 20/04 A2979 RMK A01 T02010040  RH  034%=      5-min Rain = 0
KES1 081647Z 26015KT 20/04 A2979 RMK A01 T02010040  RH  034%=      5-min Rain = 0
KES1 081648Z 25012KT 20/04 A2979 RMK A01 T02020040  RH  034%=      5-min Rain = 0
KES1 081649Z 26012KT 20/04 A2979 RMK A01 T02040042  RH  034%=      5-min Rain = 0
KES1 081650Z 26014KT 21/04 A2979 RMK A01 T02070042  RH  034%=      5-min Rain = 0
KES1 081651Z 26015KT 21/04 A2979 RMK A01 T02080042  RH  033%=      5-min Rain = 0
KES1 081652Z 27015G20KT 21/04 A2979 RMK A01 T02090042  RH  033%=      5-min Rain = 0
KES1 081653Z 27014KT 21/04 A2979 RMK A01 T02090041  RH  033%=      5-min Rain = 0
KES1 081654Z 26014KT 21/04 A298 RMK A01 T02100042  RH  033%=      5-min Rain = 0
KES1 081655Z 26017KT 21/04 A2979 RMK A01 T02100041  RH  033%=      5-min Rain = 0
KES1 081656Z 26013G18KT 21/04 A2979 RMK A01 T02090041  RH  033%=      5-min Rain = 0
KES1 081657Z 26015G20KT 21/04 A298 RMK A01 T02090042  RH  033%=      5-min Rain = 0
KES1 081658Z 27018KT 21/04 A298 RMK A01 T02100041  RH  033%=      5-min Rain = 0
KES1 081659Z 26016G21KT 21/04 A2979 RMK A01 T02100041  RH  033%=      5-min Rain = 0
KES1 081700Z 26014G19KT 21/04 A2979 RMK A01 T02100041  RH  033%=      5-min Rain = 0
KES1 081701Z 26012KT 21/04 A2979 RMK A01 T02110042  RH  033%=      5-min Rain = 0
KES1 081702Z 26014G19KT 21/04 A2979 RMK A01 T02120043  RH  033%=      5-min Rain = 0
KES1 081703Z 25014KT 21/04 A2979 RMK A01 T02130042  RH  033%=      5-min Rain = 0
KES1 081704Z 26012KT 21/04 A2979 RMK A01 T02130043  RH  033%=      5-min Rain = 0
KES1 081705Z 25017KT 21/04 A2979 RMK A01 T02140043  RH  033%=      5-min Rain = 0
KES1 081706Z 25015KT 21/04 A2979 RMK A01 T02140041  RH  032%=      5-min Rain = 0
KES1 081707Z 26014KT 21/04 A2979 RMK A01 T02130043  RH  033%=      5-min Rain = 0
KES1 081708Z 27012KT 21/04 A2979 RMK A01 T02130043  RH  033%=      5-min Rain = 0
KES1 081709Z 25013G19KT 21/04 A2979 RMK A01 T02140044  RH  033%=      5-min Rain = 0
KES1 081710Z 25014G19KT 21/04 A2979 RMK A01 T02140043  RH  033%=      5-min Rain = 0
KES1 081711Z 26014KT 21/04 A2979 RMK A01 T02140042  RH  032%=      5-min Rain = 0
KES1 081712Z 27013KT 21/04 A2979 RMK A01 T02130042  RH  033%=      5-min Rain = 0
KES1 081713Z 25010KT 21/04 A2979 RMK A01 T02120043  RH  033%=      5-min Rain = 0
KES1 081714Z 25011KT 21/04 A2979 RMK A01 T02120043  RH  033%=      5-min Rain = 0
KES1 081715Z 26014KT 21/04 A2979 RMK A01 T02120043  RH  033%=      5-min Rain = 0
KES1 081716Z 25013KT 21/04 A2979 RMK A01 T02140044  RH  033%=      5-min Rain = 0
KES1 081717Z 26012KT 22/04 A2979 RMK A01 T02150043  RH  033%=      5-min Rain = 0
KES1 081718Z 28012KT 22/04 A2979 RMK A01 T02160044  RH  033%=      5-min Rain = 0
KES1 081719Z 27015KT 22/04 A2979 RMK A01 T02160043  RH  032%=      5-min Rain = 0
KES1 081720Z 27015KT 22/04 A2979 RMK A01 T02160043  RH  032%=      5-min Rain = 0
KES1 081721Z 26015KT 22/04 A2979 RMK A01 T02150042  RH  032%=      5-min Rain = 0
KES1 081722Z 27014KT 21/04 A2979 RMK A01 T02140043  RH  033%=      5-min Rain = 0
KES1 081723Z 27014KT 21/04 A2979 RMK A01 T02130042  RH  033%=      5-min Rain = 0
KES1 081724Z 27013KT 21/04 A2979 RMK A01 T02130043  RH  033%=      5-min Rain = 0
KES1 081725Z 27011KT 21/04 A2979 RMK A01 T02130043  RH  033%=      5-min Rain = 0
KES1 081726Z 27010KT 21/04 A2978 RMK A01 T02140044  RH  033%=      5-min Rain = 0
KES1 081727Z 27010KT 22/04 A2978 RMK A01 T02150044  RH  033%=      5-min Rain = 0
KES1 081728Z 27009KT 22/04 A2978 RMK A01 T02150044  RH  033%=      5-min Rain = 0
KES1 081729Z 28014KT 21/04 A2978 RMK A01 T02140044  RH  033%=      5-min Rain = 0
KES1 081730Z 28012KT 22/05 A2978 RMK A01 T02150045  RH  033%=      5-min Rain = 0
KES1 081731Z 27012KT 21/04 A2978 RMK A01 T02140044  RH  033%=      5-min Rain = 0
KES1 081732Z 27011KT 21/04 A2978 RMK A01 T02130044  RH  033%=      5-min Rain = 0
KES1 081733Z 28010KT 21/04 A2978 RMK A01 T02130044  RH  033%=      5-min Rain = 0
KES1 081734Z 27012KT 21/05 A2978 RMK A01 T02130045  RH  033%=      5-min Rain = 0
KES1 081735Z 27013KT 21/04 A2978 RMK A01 T02130044  RH  033%=      5-min Rain = 0
KES1 081736Z 27015KT 21/04 A2978 RMK A01 T02130044  RH  033%=      5-min Rain = 0
KES1 081737Z 27013KT 21/04 A2978 RMK A01 T02130044  RH  033%=      5-min Rain = 0
KES1 081738Z 28014KT 21/04 A2978 RMK A01 T02130043  RH  033%=      5-min Rain = 0
KES1 081739Z 27012KT 21/04 A2978 RMK A01 T02120044  RH  033%=      5-min Rain = 0
KES1 081740Z 28014KT 21/04 A2978 RMK A01 T02120044  RH  033%=      5-min Rain = 0
KES1 081741Z 27015KT 21/04 A2978 RMK A01 T02120044  RH  033%=      5-min Rain = 0
KES1 081742Z 27016KT 21/04 A2978 RMK A01 T02120044  RH  033%=      5-min Rain = 0
KES1 081743Z 27015G20KT 21/05 A2978 RMK A01 T02130045  RH  033%=      5-min Rain = 0
KES1 081744Z 27015KT 21/05 A2978 RMK A01 T02130045  RH  033%=      5-min Rain = 0
KES1 081745Z 26016G23KT 21/05 A2978 RMK A01 T02130046  RH  033%=      5-min Rain = 0
KES1 081746Z 26020G27KT 21/04 A2978 RMK A01 T02130044  RH  033%=      5-min Rain = 0
KES1 081747Z 25023KT 21/05 A2978 RMK A01 T02130045  RH  033%=      5-min Rain = 0
KES1 081748Z 26020G26KT 21/04 A2978 RMK A01 T02110044  RH  033%=      5-min Rain = 0
KES1 081749Z 26016G23KT 21/04 A2978 RMK A01 T02110044  RH  034%=      5-min Rain = 0
KES1 081750Z 27019KT 21/05 A2978 RMK A01 T02110045  RH  034%=      5-min Rain = 0
KES1 081751Z 27022KT 21/05 A2978 RMK A01 T02130045  RH  033%=      5-min Rain = 0
KES1 081752Z 27021KT 21/05 A2978 RMK A01 T02130045  RH  033%=      5-min Rain = 0
KES1 081753Z 26020G25KT 21/05 A2978 RMK A01 T02130045  RH  033%=      5-min Rain = 0
KES1 081754Z 26016KT 21/05 A2978 RMK A01 T02120045  RH  033%=      5-min Rain = 0
KES1 081755Z 27018KT 21/05 A2978 RMK A01 T02120045  RH  034%=      5-min Rain = 0
KES1 081756Z 27017KT 21/05 A2977 RMK A01 T02120045  RH  034%=      5-min Rain = 0
KES1 081757Z 27019KT 21/05 A2977 RMK A01 T02110045  RH  034%=      5-min Rain = 0
KES1 081758Z 27016KT 21/04 A2977 RMK A01 T02100044  RH  034%=      5-min Rain = 0
KES1 081759Z 26014KT 21/05 A2977 RMK A01 T02100045  RH  034%=      5-min Rain = 0
KES1 081800Z 26012KT 21/05 A2977 RMK A01 T02110046  RH  034%=      5-min Rain = 0
KES1 081801Z 26011KT 21/05 A2977 RMK A01 T02130047  RH  034%=      5-min Rain = 0
KES1 081802Z 26012KT 22/05 A2977 RMK A01 T02150047  RH  033%=      5-min Rain = 0
KES1 081803Z 25011G16KT 22/05 A2977 RMK A01 T02160047  RH  033%=      5-min Rain = 0
KES1 081804Z 26011KT 22/05 A2977 RMK A01 T02170047  RH  033%=      5-min Rain = 0
KES1 081805Z 26016KT 22/05 A2977 RMK A01 T02180047  RH  033%=      5-min Rain = 0
KES1 081806Z 26014G20KT 22/05 A2977 RMK A01 T02190046  RH  032%=      5-min Rain = 0
KES1 081807Z 26013KT 22/05 A2976 RMK A01 T02180047  RH  033%=      5-min Rain = 0
KES1 081808Z 26013KT 22/05 A2976 RMK A01 T02180046  RH  033%=      5-min Rain = 0
KES1 081809Z 26008KT 22/05 A2976 RMK A01 T02170047  RH  033%=      5-min Rain = 0
KES1 081810Z 27011KT 22/05 A2976 RMK A01 T02190048  RH  033%=      5-min Rain = 0
KES1 081811Z 25013G19KT 22/05 A2976 RMK A01 T02200048  RH  033%=      5-min Rain = 0
KES1 081812Z 25015KT 22/05 A2975 RMK A01 T02200048  RH  032%=      5-min Rain = 0
KES1 081813Z 26016KT 22/05 A2975 RMK A01 T02210048  RH  032%=      5-min Rain = 0
KES1 081814Z 26011KT 22/05 A2975 RMK A01 T02220049  RH  032%=      5-min Rain = 0
KES1 081815Z 25011KT 22/05 A2975 RMK A01 T02210048  RH  032%=      5-min Rain = 0
KES1 081816Z 26011KT 22/05 A2975 RMK A01 T02200048  RH  033%=      5-min Rain = 0
KES1 081817Z 26012KT 22/05 A2975 RMK A01 T02200049  RH  033%=      5-min Rain = 0
KES1 081818Z 26012KT 22/05 A2975 RMK A01 T02200049  RH  033%=      5-min Rain = 0
KES1 081819Z 25012KT 22/05 A2975 RMK A01 T02200049  RH  033%=      5-min Rain = 0
KES1 081820Z 26013KT 22/05 A2975 RMK A01 T02210050  RH  033%=      5-min Rain = 0
KES1 081821Z 25012KT 22/05 A2975 RMK A01 T02210048  RH  032%=      5-min Rain = 0
KES1 081822Z 25010KT 22/05 A2975 RMK A01 T02200049  RH  033%=      5-min Rain = 0
KES1 081823Z 25011G16KT 22/05 A2975 RMK A01 T02210050  RH  033%=      5-min Rain = 0
KES1 081824Z 26011KT 22/05 A2975 RMK A01 T02210049  RH  033%=      5-min Rain = 0
KES1 081825Z 25013KT 22/05 A2974 RMK A01 T02210050  RH  033%=      5-min Rain = 0
KES1 081826Z 25015KT 22/05 A2974 RMK A01 T02200049  RH  033%=      5-min Rain = 0
KES1 081827Z 26014KT 22/05 A2975 RMK A01 T02200050  RH  033%=      5-min Rain = 0
KES1 081828Z 26014KT 22/05 A2974 RMK A01 T02200049  RH  033%=      5-min Rain = 0
KES1 081829Z 26015KT 22/05 A2974 RMK A01 T02200050  RH  033%=      5-min Rain = 0
KES1 081830Z 25015KT 22/05 A2974 RMK A01 T02200050  RH  033%=      5-min Rain = 0
KES1 081831Z 25016KT 22/05 A2974 RMK A01 T02200049  RH  033%=      5-min Rain = 0
KES1 081832Z 25013KT 22/05 A2974 RMK A01 T02200050  RH  033%=      5-min Rain = 0
KES1 081833Z 25015KT 22/05 A2974 RMK A01 T02200050  RH  033%=      5-min Rain = 0
KES1 081834Z 26014KT 22/05 A2974 RMK A01 T02190050  RH  033%=      5-min Rain = 0
KES1 081835Z 26010G15KT 22/05 A2974 RMK A01 T02190051  RH  033%=      5-min Rain = 0
KES1 081836Z 26012KT 22/05 A2974 RMK A01 T02210051  RH  033%=      5-min Rain = 0
KES1 081837Z 26013G19KT 22/05 A2974 RMK A01 T02220051  RH  033%=      5-min Rain = 0
KES1 081838Z 24015KT 22/05 A2974 RMK A01 T02230051  RH  033%=      5-min Rain = 0
KES1 081839Z 25014KT 22/05 A2974 RMK A01 T02230051  RH  033%=      5-min Rain = 0
KES1 081840Z 24012KT 22/05 A2974 RMK A01 T02230052  RH  033%=      5-min Rain = 0
KES1 081841Z 25009KT 22/05 A2974 RMK A01 T02240052  RH  033%=      5-min Rain = 0
KES1 081842Z 25011KT 23/05 A2974 RMK A01 T02250052  RH  032%=      5-min Rain = 0
KES1 081843Z 24012KT 23/05 A2974 RMK A01 T02250052  RH  032%=      5-min Rain = 0
KES1 081844Z 24013KT 23/05 A2974 RMK A01 T02260053  RH  032%=      5-min Rain = 0
KES1 081845Z 24013KT 23/05 A2974 RMK A01 T02280053  RH  032%=      5-min Rain = 0
KES1 081846Z 25013KT 23/05 A2974 RMK A01 T02290054  RH  032%=      5-min Rain = 0
KES1 081847Z 26013KT 23/05 A2974 RMK A01 T02310053  RH  032%=      5-min Rain = 0
KES1 081848Z 26015KT 23/05 A2974 RMK A01 T02320053  RH  031%=      5-min Rain = 0
KES1 081849Z 25015KT 23/05 A2973 RMK A01 T02320053  RH  031%=      5-min Rain = 0
KES1 081850Z 25016G21KT 23/05 A2973 RMK A01 T02320052  RH  031%=      5-min Rain = 0
KES1 081851Z 26016KT 23/05 A2973 RMK A01 T02320052  RH  031%=      5-min Rain = 0
KES1 081852Z 26017KT 23/05 A2973 RMK A01 T02320051  RH  031%=      5-min Rain = 0
KES1 081853Z 25014KT 23/05 A2972 RMK A01 T02310051  RH  031%=      5-min Rain = 0
KES1 081854Z 26016KT 23/05 A2973 RMK A01 T02310051  RH  031%=      5-min Rain = 0
KES1 081855Z 26015KT 23/05 A2973 RMK A01 T02300051  RH  031%=      5-min Rain = 0
KES1 081856Z 26015KT 23/05 A2973 RMK A01 T02300051  RH  031%=      5-min Rain = 0
KES1 081857Z 26015KT 23/05 A2973 RMK A01 T02290051  RH  031%=      5-min Rain = 0
KES1 081858Z 24009KT 23/05 A2972 RMK A01 T02290051  RH  032%=      5-min Rain = 0
KES1 081859Z 26009KT 23/05 A2972 RMK A01 T02300053  RH  032%=      5-min Rain = 0
KES1 081900Z 25014KT 23/05 A2972 RMK A01 T02330053  RH  031%=      5-min Rain = 0
KES1 081901Z 25013KT 23/05 A2972 RMK A01 T02330052  RH  031%=      5-min Rain = 0
KES1 081902Z 26012KT 23/05 A2972 RMK A01 T02340052  RH  031%=      5-min Rain = 0
KES1 081903Z 26011KT 24/05 A2972 RMK A01 T02350053  RH  031%=      5-min Rain = 0
KES1 081904Z 27011KT 24/05 A2972 RMK A01 T02370053  RH  030%=      5-min Rain = 0
KES1 081905Z 27011KT 24/05 A2972 RMK A01 T02380053  RH  030%=      5-min Rain = 0
KES1 081906Z 26014G19KT 24/05 A2972 RMK A01 T02400054  RH  030%=      5-min Rain = 0
KES1 081907Z 25010KT 24/05 A2972 RMK A01 T02410053  RH  030%=      5-min Rain = 0
KES1 081908Z 26010KT 24/05 A2972 RMK A01 T02410053  RH  030%=      5-min Rain = 0
KES1 081909Z 27012KT 24/05 A2972 RMK A01 T02430054  RH  030%=      5-min Rain = 0
KES1 081910Z 27016KT 24/05 A2972 RMK A01 T02430052  RH  029%=      5-min Rain = 0
KES1 081911Z 27015KT 24/05 A2972 RMK A01 T02410052  RH  029%=      5-min Rain = 0
KES1 081912Z 26011G16KT 24/05 A2971 RMK A01 T02400052  RH  030%=      5-min Rain = 0
KES1 081913Z 25011G17KT 24/05 A2971 RMK A01 T02400052  RH  030%=      5-min Rain = 0
KES1 081914Z 25012G19KT 24/05 A2971 RMK A01 T02410052  RH  030%=      5-min Rain = 0
KES1 081915Z 24017G23KT 24/05 A2971 RMK A01 T02420050  RH  029%=      5-min Rain = 0
KES1 081916Z 24020KT 24/05 A2971 RMK A01 T02410049  RH  029%=      5-min Rain = 0
KES1 081917Z 25016G21KT 24/05 A2971 RMK A01 T02400049  RH  029%=      5-min Rain = 0
KES1 081918Z 25017G23KT 24/05 A2971 RMK A01 T02390048  RH  029%=      5-min Rain = 0
KES1 081919Z 25019KT 24/05 A2971 RMK A01 T02380048  RH  029%=      5-min Rain = 0
KES1 081920Z 25015KT 24/05 A2971 RMK A01 T02370048  RH  029%=      5-min Rain = 0
KES1 081921Z 25017KT 24/05 A2971 RMK A01 T02370048  RH  029%=      5-min Rain = 0
KES1 081922Z 26020G25KT 24/05 A2971 RMK A01 T02380046  RH  029%=      5-min Rain = 0
KES1 081923Z 26020KT 24/05 A2971 RMK A01 T02380046  RH  029%=      5-min Rain = 0
KES1 081924Z 25019G24KT 24/05 A2971 RMK A01 T02380046  RH  029%=      5-min Rain = 0
KES1 081925Z 25018G23KT 24/05 A2971 RMK A01 T02400046  RH  029%=      5-min Rain = 0
KES1 081926Z 26015G20KT 24/05 A2971 RMK A01 T02410047  RH  028%=      5-min Rain = 0
KES1 081927Z 26016G21KT 24/05 A2971 RMK A01 T02430047  RH  028%=      5-min Rain = 0
KES1 081928Z 26015KT 24/05 A2971 RMK A01 T02440047  RH  028%=      5-min Rain = 0
KES1 081929Z 26014KT 24/05 A2971 RMK A01 T02440047  RH  028%=      5-min Rain = 0
KES1 081930Z 26018G24KT 24/05 A2971 RMK A01 T02440047  RH  028%=      5-min Rain = 0
KES1 081931Z 26021KT 24/05 A2971 RMK A01 T02430046  RH  028%=      5-min Rain = 0
KES1 081932Z 26019G25KT 24/04 A2971 RMK A01 T02400043  RH  028%=      5-min Rain = 0
KES1 081933Z 26020G25KT 24/04 A2971 RMK A01 T02380044  RH  028%=      5-min Rain = 0
KES1 081934Z 26022G27KT 24/04 A2971 RMK A01 T02370044  RH  029%=      5-min Rain = 0
KES1 081935Z 25022KT 24/04 A2971 RMK A01 T02370044  RH  029%=      5-min Rain = 0
KES1 081936Z 26018G24KT 24/04 A2971 RMK A01 T02360044  RH  029%=      5-min Rain = 0
KES1 081937Z 27020G25KT 24/05 A2971 RMK A01 T02360045  RH  029%=      5-min Rain = 0
KES1 081938Z 27018G25KT 24/05 A2971 RMK A01 T02350045  RH  029%=      5-min Rain = 0
KES1 081939Z 27021KT 23/05 A2971 RMK A01 T02340045  RH  029%=      5-min Rain = 0
KES1 081940Z 27020KT 23/05 A297 RMK A01 T02330045  RH  029%=      5-min Rain = 0
KES1 081941Z 26017G22KT 23/05 A2971 RMK A01 T02330045  RH  029%=      5-min Rain = 0
KES1 081942Z 26013KT 23/05 A297 RMK A01 T02330045  RH  029%=      5-min Rain = 0
KES1 081943Z 26012KT 24/05 A297 RMK A01 T02350047  RH  029%=      5-min Rain = 0
KES1 081944Z 26011G17KT 24/05 A297 RMK A01 T02370048  RH  029%=      5-min Rain = 0
KES1 081945Z 25017KT 24/05 A297 RMK A01 T02380047  RH  029%=      5-min Rain = 0
KES1 081946Z 25014KT 24/05 A297 RMK A01 T02390047  RH  029%=      5-min Rain = 0
KES1 081947Z 26012KT 24/05 A297 RMK A01 T02390047  RH  029%=      5-min Rain = 0
KES1 081948Z 26015G23KT 24/05 A297 RMK A01 T02390048  RH  029%=      5-min Rain = 0
KES1 081949Z 26016KT 24/05 A297 RMK A01 T02390047  RH  029%=      5-min Rain = 0
KES1 081950Z 25015KT 24/05 A2969 RMK A01 T02390047  RH  029%=      5-min Rain = 0
KES1 081951Z 26014G19KT 24/05 A2969 RMK A01 T02380047  RH  029%=      5-min Rain = 0
KES1 081952Z 26012KT 24/05 A2969 RMK A01 T02390048  RH  029%=      5-min Rain = 0
KES1 081953Z 26016KT 24/05 A2969 RMK A01 T02400048  RH  029%=      5-min Rain = 0
KES1 081954Z 25018KT 24/05 A2969 RMK A01 T02400047  RH  029%=      5-min Rain = 0
KES1 081955Z 25014KT 24/05 A2969 RMK A01 T02400047  RH  029%=      5-min Rain = 0
KES1 081956Z 24024KT 24/05 A2969 RMK A01 T02400046  RH  028%=      5-min Rain = 0
KES1 081957Z 25020G26KT 24/04 A2969 RMK A01 T02400044  RH  028%=      5-min Rain = 0
KES1 081958Z 26016KT 24/05 A2969 RMK A01 T02400045  RH  028%=      5-min Rain = 0
KES1 081959Z 25018G24KT 24/05 A2969 RMK A01 T02400046  RH  028%=      5-min Rain = 0
KES1 082000Z 25021G27KT 24/05 A2969 RMK A01 T02410046  RH  028%=      5-min Rain = 0
KES1 082001Z 25021G27KT 24/05 A2969 RMK A01 T02410045  RH  028%=      5-min Rain = 0
KES1 082002Z 25020G28KT 24/05 A2969 RMK A01 T02410045  RH  028%=      5-min Rain = 0
KES1 082003Z 26021G28KT 24/05 A2969 RMK A01 T02420046  RH  028%=      5-min Rain = 0
KES1 082004Z 26020G26KT 24/05 A2969 RMK A01 T02420045  RH  028%=      5-min Rain = 0
KES1 082005Z 26017G22KT 24/05 A2969 RMK A01 T02420046  RH  028%=      5-min Rain = 0
KES1 082006Z 26018G23KT 24/05 A2969 RMK A01 T02420046  RH  028%=      5-min Rain = 0
KES1 082007Z 26020G25KT 24/05 A2969 RMK A01 T02420046  RH  028%=      5-min Rain = 0
KES1 082008Z 26020G25KT 24/05 A2969 RMK A01 T02420046  RH  028%=      5-min Rain = 0
KES1 082009Z 26019G26KT 24/05 A2969 RMK A01 T02420047  RH  028%=      5-min Rain = 0
KES1 082010Z 26021G28KT 24/05 A2969 RMK A01 T02430047  RH  028%=      5-min Rain = 0
KES1 082011Z 25022KT 24/05 A2969 RMK A01 T02430047  RH  028%=      5-min Rain = 0
KES1 082012Z 26019G24KT 24/05 A2969 RMK A01 T02430046  RH  028%=      5-min Rain = 0
KES1 082013Z 26019G27KT 24/05 A2969 RMK A01 T02430046  RH  028%=      5-min Rain = 0
KES1 082014Z 26018KT 24/05 A2968 RMK A01 T02440046  RH  028%=      5-min Rain = 0
KES1 082015Z 27021KT 24/05 A2968 RMK A01 T02440046  RH  028%=      5-min Rain = 0
KES1 082016Z 26020KT 25/05 A2968 RMK A01 T02450046  RH  028%=      5-min Rain = 0
KES1 082017Z 26017KT 25/05 A2968 RMK A01 T02450046  RH  028%=      5-min Rain = 0
KES1 082018Z 26021G27KT 25/05 A2968 RMK A01 T02450046  RH  027%=      5-min Rain = 0
KES1 082019Z 26023G29KT 25/05 A2968 RMK A01 T02460045  RH  027%=      5-min Rain = 0
KES1 082020Z 26024KT 25/04 A2968 RMK A01 T02460043  RH  027%=      5-min Rain = 0
KES1 082021Z 26018G26KT 25/04 A2968 RMK A01 T02450043  RH  027%=      5-min Rain = 0
KES1 082022Z 26017KT 25/04 A2968 RMK A01 T02450044  RH  027%=      5-min Rain = 0
KES1 082023Z 26020G26KT 25/04 A2968 RMK A01 T02450044  RH  027%=      5-min Rain = 0
KES1 082024Z 25024G30KT 25/04 A2968 RMK A01 T02450043  RH  027%=      5-min Rain = 0
KES1 082025Z 25020G25KT 25/04 A2968 RMK A01 T02450042  RH  027%=      5-min Rain = 0
KES1 082026Z 26019KT 24/04 A2968 RMK A01 T02440043  RH  027%=      5-min Rain = 0
KES1 082027Z 27019KT 24/04 A2968 RMK A01 T02440043  RH  027%=      5-min Rain = 0
KES1 082028Z 26017G24KT 25/04 A2968 RMK A01 T02450044  RH  027%=      5-min Rain = 0
KES1 082029Z 26022G29KT 25/04 A2968 RMK A01 T02460044  RH  027%=      5-min Rain = 0
KES1 082030Z 27022KT 25/04 A2968 RMK A01 T02450043  RH  027%=      5-min Rain = 0
KES1 082031Z 26019G26KT 24/04 A2968 RMK A01 T02440043  RH  027%=      5-min Rain = 0
KES1 082032Z 26023KT 24/04 A2968 RMK A01 T02440043  RH  027%=      5-min Rain = 0
KES1 082033Z 27018G23KT 24/04 A2968 RMK A01 T02440043  RH  027%=      5-min Rain = 0
KES1 082034Z 26018G24KT 24/04 A2968 RMK A01 T02440044  RH  027%=      5-min Rain = 0
KES1 082035Z 26020G25KT 24/04 A2968 RMK A01 T02440043  RH  027%=      5-min Rain = 0
KES1 082036Z 26020KT 24/04 A2968 RMK A01 T02440043  RH  027%=      5-min Rain = 0
KES1 082037Z 27016G21KT 24/04 A2968 RMK A01 T02440044  RH  027%=      5-min Rain = 0
KES1 082038Z 27016KT 24/04 A2968 RMK A01 T02440044  RH  027%=      5-min Rain = 0
KES1 082039Z 26013G18KT 25/05 A2967 RMK A01 T02460045  RH  027%=      5-min Rain = 0
KES1 082040Z 26016KT 25/05 A2967 RMK A01 T02470045  RH  027%=      5-min Rain = 0
KES1 082041Z 27015KT 25/04 A2968 RMK A01 T02470044  RH  027%=      5-min Rain = 0
KES1 082042Z 27017G24KT 25/04 A2968 RMK A01 T02470044  RH  027%=      5-min Rain = 0
KES1 082043Z 26015G20KT 25/04 A2967 RMK A01 T02470044  RH  027%=      5-min Rain = 0
KES1 082044Z 26016G21KT 25/04 A2968 RMK A01 T02470043  RH  027%=      5-min Rain = 0
KES1 082045Z 26018KT 25/04 A2967 RMK A01 T02470043  RH  027%=      5-min Rain = 0
KES1 082046Z 26019KT 25/04 A2967 RMK A01 T02470043  RH  027%=      5-min Rain = 0
KES1 082047Z 26015G20KT 25/04 A2968 RMK A01 T02470043  RH  027%=      5-min Rain = 0
KES1 082048Z 26018G25KT 25/04 A2968 RMK A01 T02470044  RH  027%=      5-min Rain = 0
KES1 082049Z 26020KT 25/04 A2968 RMK A01 T02470043  RH  027%=      5-min Rain = 0
KES1 082050Z 27017G23KT 25/04 A2968 RMK A01 T02470042  RH  027%=      5-min Rain = 0
KES1 082051Z 25020G28KT 25/04 A2967 RMK A01 T02460043  RH  027%=      5-min Rain = 0
KES1 082052Z 25022KT 25/04 A2967 RMK A01 T02460041  RH  026%=      5-min Rain = 0
KES1 082053Z 25021G29KT 25/04 A2967 RMK A01 T02460041  RH  026%=      5-min Rain = 0
KES1 082054Z 26018G23KT 25/04 A2967 RMK A01 T02460038  RH  026%=      5-min Rain = 0
KES1 082055Z 26021G27KT 25/04 A2967 RMK A01 T02460040  RH  026%=      5-min Rain = 0
KES1 082056Z 25016G21KT 25/04 A2967 RMK A01 T02460040  RH  026%=      5-min Rain = 0
KES1 082057Z 25019KT 25/04 A2967 RMK A01 T02460040  RH  026%=      5-min Rain = 0
KES1 082058Z 25018G24KT 25/04 A2967 RMK A01 T02460040  RH  026%=      5-min Rain = 0
KES1 082059Z 26023KT 25/04 A2967 RMK A01 T02460039  RH  026%=      5-min Rain = 0
KES1 082100Z 25016KT 25/04 A2967 RMK A01 T02450039  RH  026%=      5-min Rain = 0
KES1 082101Z 25013KT 25/04 A2967 RMK A01 T02450040  RH  026%=      5-min Rain = 0
KES1 082102Z 25015KT 25/04 A2967 RMK A01 T02460040  RH  026%=      5-min Rain = 0
KES1 082103Z 25018G24KT 25/04 A2967 RMK A01 T02460040  RH  026%=      5-min Rain = 0
KES1 082104Z 25018G25KT 25/04 A2967 RMK A01 T02470039  RH  026%=      5-min Rain = 0
KES1 082105Z 26017G24KT 25/04 A2968 RMK A01 T02470039  RH  026%=      5-min Rain = 0
KES1 082106Z 25019KT 25/04 A2968 RMK A01 T02470039  RH  026%=      5-min Rain = 0
KES1 082107Z 26015KT 25/04 A2968 RMK A01 T02470039  RH  026%=      5-min Rain = 0
KES1 082108Z 25015G22KT 25/04 A2968 RMK A01 T02470039  RH  026%=      5-min Rain = 0
KES1 082109Z 25014KT 25/04 A2968 RMK A01 T02470039  RH  026%=      5-min Rain = 0
KES1 082110Z 25018KT 25/04 A2968 RMK A01 T02470039  RH  026%=      5-min Rain = 0
KES1 082111Z 25022KT 25/04 A2967 RMK A01 T02470037  RH  026%=      5-min Rain = 0
KES1 082112Z 26020KT 25/04 A2967 RMK A01 T02470036  RH  026%=      5-min Rain = 0
KES1 082113Z 26018G24KT 25/04 A2968 RMK A01 T02460037  RH  026%=      5-min Rain = 0
KES1 082114Z 26020KT 25/04 A2967 RMK A01 T02460037  RH  026%=      5-min Rain = 0
KES1 082115Z 25022KT 25/04 A2967 RMK A01 T02460036  RH  026%=      5-min Rain = 0
KES1 082116Z 25015G21KT 25/04 A2967 RMK A01 T02450036  RH  026%=      5-min Rain = 0
KES1 082117Z 25016G22KT 25/04 A2967 RMK A01 T02450037  RH  026%=      5-min Rain = 0
KES1 082118Z 26016G22KT 24/04 A2967 RMK A01 T02440037  RH  026%=      5-min Rain = 0
KES1 082119Z 26014G19KT 24/04 A2967 RMK A01 T02440037  RH  026%=      5-min Rain = 0
KES1 082120Z 26013G21KT 24/04 A2967 RMK A01 T02440037  RH  026%=      5-min Rain = 0
KES1 082121Z 26016KT 24/04 A2967 RMK A01 T02440038  RH  026%=      5-min Rain = 0
KES1 082122Z 26014KT 24/04 A2967 RMK A01 T02440038  RH  026%=      5-min Rain = 0
KES1 082123Z 26015KT 24/04 A2967 RMK A01 T02440038  RH  026%=      5-min Rain = 0
KES1 082124Z 26017KT 24/04 A2967 RMK A01 T02440038  RH  026%=      5-min Rain = 0
KES1 082125Z 26014KT 24/04 A2967 RMK A01 T02440038  RH  026%=      5-min Rain = 0
KES1 082126Z 26012G17KT 24/04 A2967 RMK A01 T02440039  RH  026%=      5-min Rain = 0
KES1 082127Z 26014KT 25/04 A2967 RMK A01 T02450040  RH  026%=      5-min Rain = 0
KES1 082128Z 26012G19KT 25/04 A2967 RMK A01 T02450040  RH  026%=      5-min Rain = 0
KES1 082129Z 27013G21KT 25/04 A2967 RMK A01 T02450040  RH  027%=      5-min Rain = 0
KES1 082130Z 27014G20KT 25/04 A2967 RMK A01 T02450040  RH  027%=      5-min Rain = 0
KES1 082131Z 26017KT 25/04 A2967 RMK A01 T02450040  RH  027%=      5-min Rain = 0
KES1 082132Z 25014KT 25/04 A2967 RMK A01 T02450040  RH  027%=      5-min Rain = 0
KES1 082133Z 25014KT 25/04 A2967 RMK A01 T02450041  RH  027%=      5-min Rain = 0
KES1 082134Z 26013KT 25/04 A2967 RMK A01 T02450042  RH  027%=      5-min Rain = 0
KES1 082135Z 25017KT 24/04 A2967 RMK A01 T02440042  RH  027%=      5-min Rain = 0
KES1 082136Z 26016KT 25/04 A2967 RMK A01 T02450042  RH  027%=      5-min Rain = 0
KES1 082137Z 26014G19KT 24/04 A2967 RMK A01 T02440042  RH  027%=      5-min Rain = 0
KES1 082138Z 27015KT 24/04 A2967 RMK A01 T02440043  RH  027%=      5-min Rain = 0
KES1 082139Z 26017G22KT 24/04 A2967 RMK A01 T02440042  RH  027%=      5-min Rain = 0
KES1 082140Z 26013KT 24/04 A2967 RMK A01 T02440042  RH  027%=      5-min Rain = 0
KES1 082141Z 26012KT 24/04 A2967 RMK A01 T02440042  RH  027%=      5-min Rain = 0
KES1 082142Z 26014KT 24/04 A2967 RMK A01 T02440043  RH  027%=      5-min Rain = 0
KES1 082143Z 25015KT 24/04 A2967 RMK A01 T02440043  RH  027%=      5-min Rain = 0
KES1 082144Z 25016KT 24/04 A2967 RMK A01 T02440043  RH  027%=      5-min Rain = 0
KES1 082145Z 26014G20KT 24/04 A2967 RMK A01 T02440043  RH  027%=      5-min Rain = 0
KES1 082146Z 26016KT 24/04 A2967 RMK A01 T02440043  RH  027%=      5-min Rain = 0
KES1 082147Z 26018KT 24/04 A2967 RMK A01 T02440043  RH  027%=      5-min Rain = 0
KES1 082148Z 26020G25KT 24/04 A2967 RMK A01 T02440042  RH  027%=      5-min Rain = 0
KES1 082149Z 26018KT 24/04 A2967 RMK A01 T02440042  RH  027%=      5-min Rain = 0
KES1 082150Z 26015G20KT 24/04 A2967 RMK A01 T02440042  RH  027%=      5-min Rain = 0
KES1 082151Z 26016KT 24/04 A2967 RMK A01 T02440043  RH  027%=      5-min Rain = 0
KES1 082152Z 26021KT 24/04 A2967 RMK A01 T02440043  RH  027%=      5-min Rain = 0
KES1 082153Z 26019G24KT 24/04 A2967 RMK A01 T02440042  RH  027%=      5-min Rain = 0
KES1 082154Z 26016G21KT 24/04 A2967 RMK A01 T02440043  RH  027%=      5-min Rain = 0
KES1 082155Z 26014G19KT 24/04 A2967 RMK A01 T02440043  RH  027%=      5-min Rain = 0
KES1 082156Z 26016KT 24/04 A2967 RMK A01 T02440044  RH  027%=      5-min Rain = 0
KES1 082157Z 26014KT 24/04 A2967 RMK A01 T02440044  RH  027%=      5-min Rain = 0
KES1 082158Z 26016G21KT 24/04 A2967 RMK A01 T02430043  RH  027%=      5-min Rain = 0
KES1 082159Z 27017KT 24/04 A2967 RMK A01 T02430043  RH  027%=      5-min Rain = 0
KES1 082200Z 26017G23KT 24/04 A2967 RMK A01 T02430043  RH  027%=      5-min Rain = 0
KES1 082201Z 27017KT 24/04 A2967 RMK A01 T02430043  RH  027%=      5-min Rain = 0
KES1 082202Z 26014KT 24/04 A2967 RMK A01 T02430043  RH  027%=      5-min Rain = 0
KES1 082203Z 26013KT 24/04 A2967 RMK A01 T02430043  RH  027%=      5-min Rain = 0
KES1 082204Z 26014KT 24/04 A2967 RMK A01 T02420043  RH  027%=      5-min Rain = 0
KES1 082205Z 25018G25KT 24/04 A2967 RMK A01 T02430044  RH  028%=      5-min Rain = 0
KES1 082206Z 26015G22KT 24/04 A2967 RMK A01 T02430044  RH  028%=      5-min Rain = 0
KES1 082207Z 26016G24KT 24/04 A2967 RMK A01 T02420044  RH  028%=      5-min Rain = 0
KES1 082208Z 25018G27KT 24/05 A2967 RMK A01 T02420045  RH  028%=      5-min Rain = 0
KES1 082209Z 26017KT 24/05 A2967 RMK A01 T02420045  RH  028%=      5-min Rain = 0
KES1 082210Z 26017G22KT 24/05 A2967 RMK A01 T02420045  RH  028%=      5-min Rain = 0
KES1 082211Z 26018G25KT 24/05 A2967 RMK A01 T02410045  RH  028%=      5-min Rain = 0
KES1 082212Z 26020G26KT 24/05 A2967 RMK A01 T02410045  RH  028%=      5-min Rain = 0
KES1 082213Z 25022G29KT 24/05 A2967 RMK A01 T02410046  RH  028%=      5-min Rain = 0
KES1 082214Z 25016G21KT 24/05 A2967 RMK A01 T02410046  RH  028%=      5-min Rain = 0
KES1 082215Z 26019G24KT 24/05 A2967 RMK A01 T02410046  RH  028%=      5-min Rain = 0
KES1 082216Z 26020KT 24/05 A2967 RMK A01 T02410047  RH  028%=      5-min Rain = 0
KES1 082217Z 26021G28KT 24/05 A2966 RMK A01 T02410047  RH  028%=      5-min Rain = 0
KES1 082218Z 26018KT 24/05 A2966 RMK A01 T02410047  RH  028%=      5-min Rain = 0
KES1 082219Z 25017G22KT 24/05 A2967 RMK A01 T02410048  RH  029%=      5-min Rain = 0
KES1 082220Z 26019KT 24/05 A2967 RMK A01 T02410047  RH  029%=      5-min Rain = 0
KES1 082221Z 25019KT 24/05 A2967 RMK A01 T02410048  RH  029%=      5-min Rain = 0
KES1 082222Z 26018G23KT 24/05 A2966 RMK A01 T02410048  RH  029%=      5-min Rain = 0
KES1 082223Z 26019G24KT 24/05 A2966 RMK A01 T02410048  RH  029%=      5-min Rain = 0
KES1 082224Z 26015KT 24/05 A2966 RMK A01 T02400047  RH  029%=      5-min Rain = 0
KES1 082225Z 26016G22KT 24/05 A2966 RMK A01 T02400048  RH  029%=      5-min Rain = 0
KES1 082226Z 26014KT 24/05 A2966 RMK A01 T02400048  RH  029%=      5-min Rain = 0
KES1 082227Z 26016G21KT 24/05 A2967 RMK A01 T02400048  RH  029%=      5-min Rain = 0
KES1 082228Z 26017KT 24/05 A2967 RMK A01 T02390048  RH  029%=      5-min Rain = 0
KES1 082229Z 26015KT 24/05 A2967 RMK A01 T02390048  RH  029%=      5-min Rain = 0
KES1 082230Z 25016G21KT 24/05 A2967 RMK A01 T02390048  RH  029%=      5-min Rain = 0
KES1 082231Z 25015G23KT 24/05 A2967 RMK A01 T02390048  RH  029%=      5-min Rain = 0
KES1 082232Z 26013KT 24/05 A2967 RMK A01 T02390048  RH  029%=      5-min Rain = 0
KES1 082233Z 26015KT 24/05 A2967 RMK A01 T02380049  RH  029%=      5-min Rain = 0
KES1 082234Z 26018G27KT 24/05 A2967 RMK A01 T02380048  RH  029%=      5-min Rain = 0
KES1 082235Z 25020G25KT 24/05 A2967 RMK A01 T02380048  RH  029%=      5-min Rain = 0
KES1 082236Z 26019G24KT 24/05 A2967 RMK A01 T02380048  RH  029%=      5-min Rain = 0
KES1 082237Z 26016KT 24/05 A2967 RMK A01 T02380048  RH  029%=      5-min Rain = 0
KES1 082238Z 27018KT 24/05 A2967 RMK A01 T02380048  RH  029%=      5-min Rain = 0
KES1 082239Z 26020G29KT 24/05 A2967 RMK A01 T02380048  RH  029%=      5-min Rain = 0
KES1 082240Z 26019G24KT 24/05 A2967 RMK A01 T02380047  RH  029%=      5-min Rain = 0
KES1 082241Z 25018KT 24/05 A2967 RMK A01 T02370047  RH  029%=      5-min Rain = 0
KES1 082242Z 26018G26KT 24/05 A2967 RMK A01 T02370047  RH  029%=      5-min Rain = 0
KES1 082243Z 26022KT 24/05 A2967 RMK A01 T02370047  RH  029%=      5-min Rain = 0
KES1 082244Z 26019G24KT 24/05 A2967 RMK A01 T02370047  RH  029%=      5-min Rain = 0
KES1 082245Z 26016KT 24/05 A2967 RMK A01 T02370047  RH  029%=      5-min Rain = 0
KES1 082246Z 25019G26KT 24/05 A2967 RMK A01 T02370048  RH  029%=      5-min Rain = 0
KES1 082247Z 26018G25KT 24/05 A2967 RMK A01 T02360048  RH  029%=      5-min Rain = 0
KES1 082248Z 26019G25KT 24/05 A2967 RMK A01 T02360048  RH  029%=      5-min Rain = 0
KES1 082249Z 26022G29KT 24/05 A2967 RMK A01 T02360047  RH  029%=      5-min Rain = 0
KES1 082250Z 25021G26KT 24/05 A2967 RMK A01 T02360048  RH  029%=      5-min Rain = 0
KES1 082251Z 25018G24KT 24/05 A2967 RMK A01 T02360047  RH  029%=      5-min Rain = 0
KES1 082252Z 26014KT 24/05 A2967 RMK A01 T02360048  RH  030%=      5-min Rain = 0
KES1 082253Z 25015G21KT 24/05 A2967 RMK A01 T02350048  RH  030%=      5-min Rain = 0
KES1 082254Z 25018KT 23/05 A2967 RMK A01 T02340048  RH  030%=      5-min Rain = 0
KES1 082255Z 25019KT 23/05 A2967 RMK A01 T02340048  RH  030%=      5-min Rain = 0
KES1 082256Z 25020KT 23/05 A2967 RMK A01 T02340048  RH  030%=      5-min Rain = 0
KES1 082257Z 26019G25KT 23/05 A2968 RMK A01 T02340048  RH  030%=      5-min Rain = 0
KES1 082258Z 26016KT 23/05 A2967 RMK A01 T02340048  RH  030%=      5-min Rain = 0
KES1 082259Z 26018G23KT 23/05 A2967 RMK A01 T02330048  RH  030%=      5-min Rain = 0
KES1 082300Z 26017G22KT 23/05 A2967 RMK A01 T02330048  RH  030%=      5-min Rain = 0
KES1 082301Z 26015KT 23/05 A2967 RMK A01 T02320049  RH  030%=      5-min Rain = 0
KES1 082302Z 26018KT 23/05 A2967 RMK A01 T02320048  RH  030%=      5-min Rain = 0
KES1 082303Z 25014KT 23/05 A2967 RMK A01 T02320048  RH  030%=      5-min Rain = 0
KES1 082304Z 26015KT 23/05 A2967 RMK A01 T02320049  RH  030%=      5-min Rain = 0
KES1 082305Z 26017KT 23/05 A2967 RMK A01 T02320048  RH  030%=      5-min Rain = 0
KES1 082306Z 26019G24KT 23/05 A2967 RMK A01 T02320048  RH  030%=      5-min Rain = 0
KES1 082307Z 26018KT 23/05 A2967 RMK A01 T02320048  RH  030%=      5-min Rain = 0
KES1 082308Z 26020G25KT 23/05 A2967 RMK A01 T02320048  RH  030%=      5-min Rain = 0
KES1 082309Z 26018KT 23/05 A2967 RMK A01 T02320048  RH  030%=      5-min Rain = 0
KES1 082310Z 25016G21KT 23/05 A2967 RMK A01 T02320048  RH  030%=      5-min Rain = 0
KES1 082311Z 26014KT 23/05 A2967 RMK A01 T02310048  RH  030%=      5-min Rain = 0
KES1 082312Z 26016KT 23/05 A2968 RMK A01 T02300048  RH  031%=      5-min Rain = 0
KES1 082313Z 25016KT 23/05 A2968 RMK A01 T02300048  RH  031%=      5-min Rain = 0
KES1 082314Z 26015KT 23/05 A2968 RMK A01 T02290048  RH  031%=      5-min Rain = 0
KES1 082315Z 26015KT 23/05 A2968 RMK A01 T02290049  RH  031%=      5-min Rain = 0
KES1 082316Z 25011KT 23/05 A2968 RMK A01 T02280049  RH  031%=      5-min Rain = 0
KES1 082317Z 26011KT 23/05 A2968 RMK A01 T02270048  RH  031%=      5-min Rain = 0
KES1 082318Z 26012KT 23/05 A2968 RMK A01 T02260048  RH  031%=      5-min Rain = 0
KES1 082319Z 26009KT 23/05 A2968 RMK A01 T02260048  RH  032%=      5-min Rain = 0
KES1 082320Z 26010KT 23/05 A2968 RMK A01 T02250048  RH  032%=      5-min Rain = 0
KES1 082321Z 25012G19KT 22/05 A2968 RMK A01 T02240049  RH  032%=      5-min Rain = 0
KES1 082322Z 26011KT 22/05 A2968 RMK A01 T02230048  RH  032%=      5-min Rain = 0
KES1 082323Z 26014KT 22/05 A2968 RMK A01 T02240048  RH  032%=      5-min Rain = 0
KES1 082324Z 26011KT 22/05 A2968 RMK A01 T02240048  RH  032%=      5-min Rain = 0
KES1 082325Z 26011KT 22/05 A2968 RMK A01 T02240048  RH  032%=      5-min Rain = 0
KES1 082326Z 26013KT 22/05 A2968 RMK A01 T02230048  RH  032%=      5-min Rain = 0
KES1 082327Z 26012KT 22/05 A2968 RMK A01 T02230048  RH  032%=      5-min Rain = 0
KES1 082328Z 26012KT 22/05 A2968 RMK A01 T02230048  RH  032%=      5-min Rain = 0
KES1 082329Z 26012KT 22/05 A2968 RMK A01 T02230049  RH  032%=      5-min Rain = 0
KES1 082330Z 25013KT 22/05 A2968 RMK A01 T02220048  RH  032%=      5-min Rain = 0
KES1 082331Z 25012KT 22/05 A2968 RMK A01 T02220048  RH  032%=      5-min Rain = 0
KES1 082332Z 26012G17KT 22/05 A2968 RMK A01 T02220049  RH  032%=      5-min Rain = 0
KES1 082333Z 25012KT 22/05 A2968 RMK A01 T02220048  RH  032%=      5-min Rain = 0
KES1 082334Z 25014KT 22/05 A2968 RMK A01 T02230048  RH  032%=      5-min Rain = 0
KES1 082335Z 25012KT 22/05 A2968 RMK A01 T02230049  RH  032%=      5-min Rain = 0
KES1 082336Z 25012KT 22/05 A2968 RMK A01 T02230049  RH  032%=      5-min Rain = 0
KES1 082337Z 25012KT 22/05 A2968 RMK A01 T02220048  RH  032%=      5-min Rain = 0
KES1 082338Z 25010KT 22/05 A2968 RMK A01 T02220048  RH  032%=      5-min Rain = 0
KES1 082339Z 25011KT 22/05 A2968 RMK A01 T02220049  RH  032%=      5-min Rain = 0
KES1 082340Z 25009KT 22/05 A2968 RMK A01 T02210048  RH  033%=      5-min Rain = 0
KES1 082341Z 26009KT 22/05 A2968 RMK A01 T02200048  RH  033%=      5-min Rain = 0
KES1 082342Z 25010KT 22/05 A2968 RMK A01 T02190049  RH  033%=      5-min Rain = 0
KES1 082343Z 25009KT 22/05 A2968 RMK A01 T02190049  RH  033%=      5-min Rain = 0
KES1 082344Z 25010KT 22/05 A2968 RMK A01 T02180049  RH  033%=      5-min Rain = 0
KES1 082345Z 25010KT 22/05 A2968 RMK A01 T02180049  RH  033%=      5-min Rain = 0
KES1 082346Z 25009KT 22/05 A2968 RMK A01 T02180048  RH  033%=      5-min Rain = 0
KES1 082347Z 25009KT 22/05 A2968 RMK A01 T02180048  RH  033%=      5-min Rain = 0
KES1 082348Z 25010KT 22/05 A2968 RMK A01 T02180049  RH  033%=      5-min Rain = 0
KES1 082349Z 25009KT 22/05 A2967 RMK A01 T02180049  RH  033%=      5-min Rain = 0
KES1 082350Z 26008KT 22/05 A2967 RMK A01 T02170049  RH  033%=      5-min Rain = 0
KES1 082351Z 25008KT 22/05 A2967 RMK A01 T02160049  RH  033%=      5-min Rain = 0
KES1 082352Z 25007KT 22/05 A2967 RMK A01 T02160049  RH  034%=      5-min Rain = 0
KES1 082353Z 25008KT 22/05 A2967 RMK A01 T02150049  RH  034%=      5-min Rain = 0
KES1 082354Z 25007KT 22/05 A2967 RMK A01 T02150049  RH  034%=      5-min Rain = 0
KES1 082355Z 26009KT 21/05 A2967 RMK A01 T02140049  RH  034%=      5-min Rain = 0
KES1 082356Z 25009KT 21/05 A2967 RMK A01 T02140049  RH  034%=      5-min Rain = 0
KES1 082357Z 25009KT 21/05 A2967 RMK A01 T02140049  RH  034%=      5-min Rain = 0
KES1 082358Z 25009KT 21/05 A2967 RMK A01 T02140050  RH  034%=      5-min Rain = 0
KES1 082359Z 25009G14KT 22/05 A2967 RMK A01 T02150050  RH  034%=      5-min Rain = 0
KES1 090000Z 25010KT 22/05 A2967 RMK A01 T02150050  RH  034%=      5-min Rain = 0
KES1 090001Z 25008KT 21/05 A2967 RMK A01 T02140050  RH  034%=      5-min Rain = 0
KES1 090002Z 25010KT 21/05 A2967 RMK A01 T02140050  RH  034%=      5-min Rain = 0
KES1 090003Z 25012KT 21/05 A2967 RMK A01 T02140051  RH  034%=      5-min Rain = 0
KES1 090004Z 24012KT 22/05 A2967 RMK A01 T02160051  RH  034%=      5-min Rain = 0
KES1 090005Z 25013KT 22/05 A2967 RMK A01 T02170051  RH  034%=      5-min Rain = 0
KES1 090006Z 24015KT 22/05 A2967 RMK A01 T02180051  RH  034%=      5-min Rain = 0
KES1 090007Z 24016KT 22/05 A2967 RMK A01 T02190051  RH  033%=      5-min Rain = 0
KES1 090008Z 25013KT 22/05 A2967 RMK A01 T02200052  RH  033%=      5-min Rain = 0
KES1 090009Z 25012KT 22/05 A2967 RMK A01 T02200052  RH  033%=      5-min Rain = 0
KES1 090010Z 25011KT 22/05 A2967 RMK A01 T02190051  RH  034%=      5-min Rain = 0
KES1 090011Z 25017KT 22/05 A2967 RMK A01 T02190052  RH  034%=      5-min Rain = 0
KES1 090012Z 25016G22KT 22/05 A2967 RMK A01 T02200051  RH  033%=      5-min Rain = 0
KES1 090013Z 25016KT 22/05 A2968 RMK A01 T02210052  RH  033%=      5-min Rain = 0
KES1 090014Z 25013KT 22/05 A2967 RMK A01 T02220052  RH  033%=      5-min Rain = 0
KES1 090015Z 25012KT 22/05 A2967 RMK A01 T02220052  RH  033%=      5-min Rain = 0
KES1 090016Z 25012KT 22/05 A2967 RMK A01 T02200052  RH  033%=      5-min Rain = 0
KES1 090017Z 25013KT 22/05 A2967 RMK A01 T02200052  RH  033%=      5-min Rain = 0
KES1 090018Z 25011KT 22/05 A2967 RMK A01 T02200052  RH  033%=      5-min Rain = 0
KES1 090019Z 25011KT 22/05 A2967 RMK A01 T02190052  RH  034%=      5-min Rain = 0
KES1 090020Z 25013G18KT 22/05 A2967 RMK A01 T02180052  RH  034%=      5-min Rain = 0
KES1 090021Z 25014G19KT 22/05 A2967 RMK A01 T02180052  RH  034%=      5-min Rain = 0
KES1 090022Z 24014KT 22/05 A2967 RMK A01 T02180051  RH  034%=      5-min Rain = 0
KES1 090023Z 25012KT 22/05 A2967 RMK A01 T02190052  RH  034%=      5-min Rain = 0
KES1 090024Z 25011KT 22/05 A2968 RMK A01 T02190052  RH  034%=      5-min Rain = 0
KES1 090025Z 25013KT 22/05 A2968 RMK A01 T02180052  RH  034%=      5-min Rain = 0
KES1 090026Z 25014G19KT 22/05 A2967 RMK A01 T02180052  RH  034%=      5-min Rain = 0
KES1 090027Z 25014G19KT 22/05 A2967 RMK A01 T02190052  RH  034%=      5-min Rain = 0
KES1 090028Z 24016KT 22/05 A2967 RMK A01 T02190052  RH  034%=      5-min Rain = 0
KES1 090029Z 24015KT 22/05 A2968 RMK A01 T02190052  RH  034%=      5-min Rain = 0
KES1 090030Z 25015G20KT 22/05 A2968 RMK A01 T02200052  RH  034%=      5-min Rain = 0
KES1 090031Z 25016G21KT 22/05 A2968 RMK A01 T02190052  RH  034%=      5-min Rain = 0
KES1 090032Z 25012KT 22/05 A2968 RMK A01 T02190052  RH  034%=      5-min Rain = 0
KES1 090033Z 25013KT 22/05 A2968 RMK A01 T02180052  RH  034%=      5-min Rain = 0
KES1 090034Z 25014KT 22/05 A2967 RMK A01 T02180052  RH  034%=      5-min Rain = 0
KES1 090035Z 24014KT 22/05 A2967 RMK A01 T02180053  RH  034%=      5-min Rain = 0
KES1 090036Z 24015KT 22/05 A2967 RMK A01 T02180052  RH  034%=      5-min Rain = 0
KES1 090037Z 25014KT 22/05 A2967 RMK A01 T02180052  RH  034%=      5-min Rain = 0
KES1 090038Z 24013KT 22/05 A2967 RMK A01 T02180052  RH  034%=      5-min Rain = 0
KES1 090039Z 24013KT 22/05 A2967 RMK A01 T02170053  RH  034%=      5-min Rain = 0
KES1 090040Z 25013KT 22/05 A2967 RMK A01 T02160052  RH  034%=      5-min Rain = 0
KES1 090041Z 24012G17KT 22/05 A2967 RMK A01 T02160053  RH  034%=      5-min Rain = 0
KES1 090042Z 24015KT 22/05 A2967 RMK A01 T02160053  RH  035%=      5-min Rain = 0
KES1 090043Z 24013KT 22/05 A2967 RMK A01 T02160053  RH  035%=      5-min Rain = 0
KES1 090044Z 25013KT 22/05 A2967 RMK A01 T02160053  RH  035%=      5-min Rain = 0
KES1 090045Z 24014KT 22/05 A2967 RMK A01 T02160054  RH  035%=      5-min Rain = 0
KES1 090046Z 25014G20KT 22/05 A2967 RMK A01 T02160053  RH  035%=      5-min Rain = 0
KES1 090047Z 24012KT 22/05 A2968 RMK A01 T02160053  RH  035%=      5-min Rain = 0
KES1 090048Z 25014KT 22/05 A2968 RMK A01 T02160054  RH  035%=      5-min Rain = 0
KES1 090049Z 25013KT 22/05 A2968 RMK A01 T02150054  RH  035%=      5-min Rain = 0
KES1 090050Z 25013KT 22/05 A2968 RMK A01 T02150054  RH  035%=      5-min Rain = 0
KES1 090051Z 25014KT 22/05 A2968 RMK A01 T02150054  RH  035%=      5-min Rain = 0
KES1 090052Z 25014G19KT 22/05 A2968 RMK A01 T02150054  RH  035%=      5-min Rain = 0
KES1 090053Z 24016KT 22/05 A2968 RMK A01 T02150054  RH  035%=      5-min Rain = 0
KES1 090054Z 24013KT 22/05 A2968 RMK A01 T02150054  RH  035%=      5-min Rain = 0
KES1 090055Z 25014KT 22/05 A2968 RMK A01 T02150054  RH  035%=      5-min Rain = 0
KES1 090056Z 24016KT 22/05 A2968 RMK A01 T02150054  RH  035%=      5-min Rain = 0
KES1 090057Z 25016KT 22/06 A2968 RMK A01 T02150055  RH  035%=      5-min Rain = 0
KES1 090058Z 24014G19KT 22/06 A2968 RMK A01 T02160055  RH  035%=      5-min Rain = 0
KES1 090059Z 25015G21KT 22/06 A2968 RMK A01 T02150055  RH  035%=      5-min Rain = 0
KES1 090100Z 24014G19KT 21/05 A2968 RMK A01 T02140054  RH  035%=      5-min Rain = 0
KES1 090101Z 24016KT 21/06 A2969 RMK A01 T02140055  RH  035%=      5-min Rain = 0
KES1 090102Z 25014KT 21/05 A2969 RMK A01 T02140054  RH  035%=      5-min Rain = 0
KES1 090103Z 24011KT 21/06 A2969 RMK A01 T02140055  RH  035%=      5-min Rain = 0
KES1 090104Z 25014KT 21/06 A2969 RMK A01 T02130055  RH  036%=      5-min Rain = 0
KES1 090105Z 25012KT 21/05 A2969 RMK A01 T02130054  RH  036%=      5-min Rain = 0
KES1 090106Z 24014G19KT 21/05 A2969 RMK A01 T02120054  RH  036%=      5-min Rain = 0
KES1 090107Z 24016KT 21/05 A2969 RMK A01 T02130054  RH  036%=      5-min Rain = 0
KES1 090108Z 25015KT 21/05 A2969 RMK A01 T02130054  RH  035%=      5-min Rain = 0
KES1 090109Z 24011G16KT 21/05 A2969 RMK A01 T02130054  RH  035%=      5-min Rain = 0
KES1 090110Z 24011KT 21/05 A2968 RMK A01 T02130054  RH  036%=      5-min Rain = 0
KES1 090111Z 24015G21KT 21/05 A2968 RMK A01 T02110054  RH  036%=      5-min Rain = 0
KES1 090112Z 24013KT 21/05 A2969 RMK A01 T02110054  RH  036%=      5-min Rain = 0
KES1 090113Z 24011KT 21/05 A2969 RMK A01 T02110054  RH  036%=      5-min Rain = 0
KES1 090114Z 24010KT 21/05 A2969 RMK A01 T02100054  RH  036%=      5-min Rain = 0
KES1 090115Z 24013KT 21/05 A2969 RMK A01 T02100054  RH  036%=      5-min Rain = 0
KES1 090116Z 24013KT 21/05 A2969 RMK A01 T02090054  RH  036%=      5-min Rain = 0
KES1 090117Z 24014KT 21/05 A2969 RMK A01 T02100054  RH  036%=      5-min Rain = 0
KES1 090118Z 24014KT 21/05 A2969 RMK A01 T02100054  RH  036%=      5-min Rain = 0
KES1 090119Z 23012G17KT 21/05 A2969 RMK A01 T02100053  RH  036%=      5-min Rain = 0
KES1 090120Z 24013KT 21/05 A2969 RMK A01 T02100053  RH  036%=      5-min Rain = 0
KES1 090121Z 24016KT 21/05 A2969 RMK A01 T02090052  RH  036%=      5-min Rain = 0
KES1 090122Z 24012KT 21/05 A2969 RMK A01 T02100052  RH  036%=      5-min Rain = 0
KES1 090123Z 24014KT 21/05 A2969 RMK A01 T02090052  RH  036%=      5-min Rain = 0
KES1 090124Z 24014KT 21/05 A2969 RMK A01 T02090052  RH  036%=      5-min Rain = 0
KES1 090125Z 24015KT 21/05 A2969 RMK A01 T02090051  RH  036%=      5-min Rain = 0
KES1 090126Z 24012G17KT 21/05 A2969 RMK A01 T02100051  RH  035%=      5-min Rain = 0
KES1 090127Z 24013KT 21/05 A2969 RMK A01 T02100051  RH  035%=      5-min Rain = 0
KES1 090128Z 23014KT 21/05 A2969 RMK A01 T02100051  RH  035%=      5-min Rain = 0
KES1 090129Z 24014KT 21/05 A2969 RMK A01 T02100051  RH  035%=      5-min Rain = 0
KES1 090130Z 24013G20KT 21/05 A2969 RMK A01 T02100050  RH  035%=      5-min Rain = 0
KES1 090131Z 24016G22KT 21/05 A2969 RMK A01 T02100049  RH  035%=      5-min Rain = 0
KES1 090132Z 24020KT 21/05 A2969 RMK A01 T02110049  RH  035%=      5-min Rain = 0
KES1 090133Z 24016KT 21/05 A2969 RMK A01 T02120049  RH  034%=      5-min Rain = 0
KES1 090134Z 25015KT 21/05 A2969 RMK A01 T02120049  RH  034%=      5-min Rain = 0
KES1 090135Z 24017KT 21/05 A2969 RMK A01 T02110049  RH  034%=      5-min Rain = 0
KES1 090136Z 25016G21KT 21/05 A2969 RMK A01 T02110048  RH  034%=      5-min Rain = 0
KES1 090137Z 25019G25KT 21/05 A2969 RMK A01 T02110048  RH  034%=      5-min Rain = 0
KES1 090138Z 24020KT 21/05 A2969 RMK A01 T02120047  RH  034%=      5-min Rain = 0
KES1 090139Z 25016KT 21/05 A2969 RMK A01 T02130047  RH  034%=      5-min Rain = 0
KES1 090140Z 25017KT 21/05 A2969 RMK A01 T02130047  RH  034%=      5-min Rain = 0
KES1 090141Z 25016KT 21/05 A2969 RMK A01 T02120047  RH  034%=      5-min Rain = 0
KES1 090142Z 25015KT 21/05 A2969 RMK A01 T02120047  RH  034%=      5-min Rain = 0
KES1 090143Z 25013KT 21/05 A2969 RMK A01 T02110047  RH  034%=      5-min Rain = 0
KES1 090144Z 25013G21KT 21/05 A2969 RMK A01 T02100047  RH  034%=      5-min Rain = 0
KES1 090145Z 25017G22KT 21/05 A2969 RMK A01 T02100046  RH  034%=      5-min Rain = 0
KES1 090146Z 25018G23KT 21/05 A2969 RMK A01 T02100046  RH  034%=      5-min Rain = 0
KES1 090147Z 25017G22KT 21/05 A2969 RMK A01 T02110046  RH  034%=      5-min Rain = 0
KES1 090148Z 24017G24KT 21/05 A2969 RMK A01 T02110046  RH  034%=      5-min Rain = 0
KES1 090149Z 25016G24KT 21/05 A2969 RMK A01 T02110046  RH  034%=      5-min Rain = 0
KES1 090150Z 24019KT 21/05 A2969 RMK A01 T02100046  RH  034%=      5-min Rain = 0
KES1 090151Z 25014G20KT 21/05 A2969 RMK A01 T02100046  RH  034%=      5-min Rain = 0
KES1 090152Z 25018KT 21/05 A2969 RMK A01 T02100046  RH  034%=      5-min Rain = 0
KES1 090153Z 25016G23KT 21/05 A2969 RMK A01 T02100046  RH  034%=      5-min Rain = 0
KES1 090154Z 25013KT 21/05 A2969 RMK A01 T02100046  RH  034%=      5-min Rain = 0
KES1 090155Z 25016G24KT 21/05 A2969 RMK A01 T02090046  RH  034%=      5-min Rain = 0
KES1 090156Z 25019G24KT 21/05 A2969 RMK A01 T02080046  RH  034%=      5-min Rain = 0
KES1 090157Z 25016G23KT 21/05 A2969 RMK A01 T02090046  RH  034%=      5-min Rain = 0
KES1 090158Z 24014KT 21/05 A2969 RMK A01 T02100047  RH  034%=      5-min Rain = 0
KES1 090159Z 25017G22KT 21/05 A2969 RMK A01 T02090046  RH  034%=      5-min Rain = 0
KES1 090200Z 25018KT 21/05 A2969 RMK A01 T02080046  RH  035%=      5-min Rain = 0
KES1 090201Z 25019KT 21/05 A2969 RMK A01 T02090046  RH  034%=      5-min Rain = 0
KES1 090202Z 25016KT 21/05 A2969 RMK A01 T02090046  RH  034%=      5-min Rain = 0
KES1 090203Z 25018KT 21/05 A2969 RMK A01 T02090047  RH  034%=      5-min Rain = 0
KES1 090204Z 25014KT 21/05 A2969 RMK A01 T02090047  RH  034%=      5-min Rain = 0
KES1 090205Z 25016KT 21/05 A2969 RMK A01 T02080047  RH  035%=      5-min Rain = 0
KES1 090206Z 25014G19KT 21/05 A2969 RMK A01 T02080046  RH  035%=      5-min Rain = 0
KES1 090207Z 26011KT 21/05 A2969 RMK A01 T02070047  RH  035%=      5-min Rain = 0
KES1 090208Z 25016KT 21/05 A2969 RMK A01 T02060046  RH  035%=      5-min Rain = 0
KES1 090209Z 25015G20KT 21/05 A2969 RMK A01 T02060047  RH  035%=      5-min Rain = 0
KES1 090210Z 24015KT 21/05 A2969 RMK A01 T02060047  RH  035%=      5-min Rain = 0
KES1 090211Z 25013KT 21/05 A2969 RMK A01 T02060047  RH  035%=      5-min Rain = 0
KES1 090212Z 25013KT 21/05 A2969 RMK A01 T02050047  RH  035%=      5-min Rain = 0
KES1 090213Z 25013KT 21/05 A2969 RMK A01 T02050047  RH  035%=      5-min Rain = 0
KES1 090214Z 25015G20KT 21/05 A2969 RMK A01 T02050047  RH  036%=      5-min Rain = 0
KES1 090215Z 25015KT 21/05 A2968 RMK A01 T02050047  RH  036%=      5-min Rain = 0
KES1 090216Z 24013KT 20/05 A2968 RMK A01 T02040047  RH  036%=      5-min Rain = 0
KES1 090217Z 25015KT 20/05 A2968 RMK A01 T02040047  RH  036%=      5-min Rain = 0
KES1 090218Z 25015KT 20/05 A2969 RMK A01 T02040048  RH  036%=      5-min Rain = 0
KES1 090219Z 24014KT 20/05 A2969 RMK A01 T02030048  RH  036%=      5-min Rain = 0
KES1 090220Z 25013KT 20/05 A2968 RMK A01 T02030048  RH  036%=      5-min Rain = 0
KES1 090221Z 25013KT 20/05 A2968 RMK A01 T02030048  RH  036%=      5-min Rain = 0
KES1 090222Z 25015KT 20/05 A2968 RMK A01 T02020048  RH  036%=      5-min Rain = 0
KES1 090223Z 25014KT 20/05 A2968 RMK A01 T02020048  RH  036%=      5-min Rain = 0
KES1 090224Z 25013KT 20/05 A2968 RMK A01 T02020048  RH  036%=      5-min Rain = 0
KES1 090225Z 25012KT 20/05 A2969 RMK A01 T02020048  RH  036%=      5-min Rain = 0
KES1 090226Z 25013KT 20/05 A2969 RMK A01 T02010048  RH  037%=      5-min Rain = 0
KES1 090227Z 25014KT 20/05 A2969 RMK A01 T02010048  RH  037%=      5-min Rain = 0
KES1 090228Z 25011KT 20/05 A2969 RMK A01 T02000049  RH  037%=      5-min Rain = 0
KES1 090229Z 25009KT 20/05 A2969 RMK A01 T02000049  RH  037%=      5-min Rain = 0
KES1 090230Z 25010KT 20/05 A2969 RMK A01 T01990049  RH  037%=      5-min Rain = 0
KES1 090231Z 26012KT 20/05 A2969 RMK A01 T01980049  RH  038%=      5-min Rain = 0
KES1 090232Z 25012KT 20/05 A2969 RMK A01 T01970050  RH  038%=      5-min Rain = 0
KES1 090233Z 25011KT 20/05 A2969 RMK A01 T01970050  RH  038%=      5-min Rain = 0
KES1 090234Z 25010KT 20/05 A2969 RMK A01 T01970050  RH  038%=      5-min Rain = 0
KES1 090235Z 25011KT 20/05 A2969 RMK A01 T01960050  RH  038%=      5-min Rain = 0
KES1 090236Z 25014G19KT 20/05 A2969 RMK A01 T01960050  RH  038%=      5-min Rain = 0
KES1 090237Z 26011KT 20/05 A2969 RMK A01 T01970051  RH  038%=      5-min Rain = 0
KES1 090238Z 25013KT 20/05 A2969 RMK A01 T01970051  RH  038%=      5-min Rain = 0
KES1 090239Z 26011G16KT 20/05 A2969 RMK A01 T01970051  RH  038%=      5-min Rain = 0
KES1 090240Z 26012G18KT 20/05 A2969 RMK A01 T01970051  RH  038%=      5-min Rain = 0
KES1 090241Z 25014G19KT 20/05 A2969 RMK A01 T01970052  RH  038%=      5-min Rain = 0
KES1 090242Z 26015KT 20/05 A2969 RMK A01 T01970051  RH  038%=      5-min Rain = 0
KES1 090243Z 25014KT 20/05 A2969 RMK A01 T01980052  RH  038%=      5-min Rain = 0
KES1 090244Z 26013KT 20/05 A2969 RMK A01 T01970052  RH  038%=      5-min Rain = 0
KES1 090245Z 25011KT 20/05 A2969 RMK A01 T01970052  RH  038%=      5-min Rain = 0
KES1 090246Z 25013KT 20/05 A2968 RMK A01 T01960052  RH  039%=      5-min Rain = 0
KES1 090247Z 25016KT 20/05 A2968 RMK A01 T01960052  RH  039%=      5-min Rain = 0
KES1 090248Z 25015KT 20/05 A2968 RMK A01 T01960052  RH  039%=      5-min Rain = 0
KES1 090249Z 26017KT 20/05 A2968 RMK A01 T01970051  RH  039%=      5-min Rain = 0
KES1 090250Z 25016G24KT 20/05 A2968 RMK A01 T01970051  RH  038%=      5-min Rain = 0
KES1 090251Z 25021G27KT 20/05 A2968 RMK A01 T01970051  RH  038%=      5-min Rain = 0
KES1 090252Z 25024G29KT 20/05 A2968 RMK A01 T01990051  RH  038%=      5-min Rain = 0
KES1 090253Z 25023G30KT 20/05 A2968 RMK A01 T01990050  RH  038%=      5-min Rain = 0
KES1 090254Z 25024G30KT 20/05 A2968 RMK A01 T02000050  RH  037%=      5-min Rain = 0
KES1 090255Z 25020G27KT 20/05 A2967 RMK A01 T02010050  RH  037%=      5-min Rain = 0
KES1 090256Z 25022G28KT 20/05 A2967 RMK A01 T02010050  RH  037%=      5-min Rain = 0
KES1 090257Z 25017G24KT 20/05 A2968 RMK A01 T02000050  RH  037%=      5-min Rain = 0
KES1 090258Z 25021KT 20/05 A2967 RMK A01 T02000050  RH  037%=      5-min Rain = 0
KES1 090259Z 25020KT 20/05 A2968 RMK A01 T02000050  RH  037%=      5-min Rain = 0
KES1 090300Z 24020G26KT 20/05 A2968 RMK A01 T01990050  RH  037%=      5-min Rain = 0
KES1 090301Z 25017KT 20/05 A2968 RMK A01 T01990050  RH  037%=      5-min Rain = 0
KES1 090302Z 25020G28KT 20/05 A2968 RMK A01 T01990050  RH  038%=      5-min Rain = 0
KES1 090303Z 25024G29KT 20/05 A2968 RMK A01 T01990050  RH  038%=      5-min Rain = 0
KES1 090304Z 24019KT 20/05 A2968 RMK A01 T01990051  RH  038%=      5-min Rain = 0
KES1 090305Z 25019KT 20/05 A2968 RMK A01 T01990051  RH  038%=      5-min Rain = 0
KES1 090306Z 24016KT 20/05 A2968 RMK A01 T01980050  RH  038%=      5-min Rain = 0
KES1 090307Z 25017G24KT 20/05 A2968 RMK A01 T01980051  RH  038%=      5-min Rain = 0
KES1 090308Z 25021G26KT 20/05 A2968 RMK A01 T01970051  RH  038%=      5-min Rain = 0
KES1 090309Z 25020KT 20/05 A2968 RMK A01 T01970051  RH  038%=      5-min Rain = 0
KES1 090310Z 25015KT 20/05 A2968 RMK A01 T01970051  RH  038%=      5-min Rain = 0
KES1 090311Z 25018KT 20/05 A2968 RMK A01 T01960051  RH  038%=      5-min Rain = 0
KES1 090312Z 25016KT 20/05 A2968 RMK A01 T01960051  RH  039%=      5-min Rain = 0
KES1 090313Z 25012KT 20/05 A2968 RMK A01 T01960051  RH  039%=      5-min Rain = 0
KES1 090314Z 25017G22KT 20/05 A2968 RMK A01 T01950051  RH  039%=      5-min Rain = 0
KES1 090315Z 25018KT 19/05 A2968 RMK A01 T01940051  RH  039%=      5-min Rain = 0
KES1 090316Z 25016KT 19/05 A2968 RMK A01 T01940051  RH  039%=      5-min Rain = 0
KES1 090317Z 25013KT 19/05 A2968 RMK A01 T01940051  RH  039%=      5-min Rain = 0
KES1 090318Z 25014KT 19/05 A2968 RMK A01 T01930051  RH  039%=      5-min Rain = 0
KES1 090319Z 26015KT 19/05 A2968 RMK A01 T01930052  RH  039%=      5-min Rain = 0
KES1 090320Z 26016KT 19/05 A2968 RMK A01 T01920051  RH  040%=      5-min Rain = 0
KES1 090321Z 26015G21KT 19/05 A2968 RMK A01 T01920051  RH  040%=      5-min Rain = 0
KES1 090322Z 26015KT 19/05 A2968 RMK A01 T01920052  RH  040%=      5-min Rain = 0
KES1 090323Z 26016KT 19/05 A2969 RMK A01 T01920052  RH  040%=      5-min Rain = 0
KES1 090324Z 26016G21KT 19/05 A2969 RMK A01 T01910052  RH  040%=      5-min Rain = 0
KES1 090325Z 26013G18KT 19/05 A2969 RMK A01 T01910052  RH  040%=      5-min Rain = 0
KES1 090326Z 26012KT 19/05 A2969 RMK A01 T01900052  RH  040%=      5-min Rain = 0
KES1 090327Z 26016G21KT 19/05 A2969 RMK A01 T01880051  RH  040%=      5-min Rain = 0
KES1 090328Z 26014KT 19/05 A2969 RMK A01 T01880051  RH  041%=      5-min Rain = 0
KES1 090329Z 26015KT 19/05 A2968 RMK A01 T01870051  RH  041%=      5-min Rain = 0
KES1 090330Z 25018KT 19/05 A2968 RMK A01 T01870051  RH  041%=      5-min Rain = 0
KES1 090331Z 26016KT 19/05 A2968 RMK A01 T01870051  RH  041%=      5-min Rain = 0
KES1 090332Z 25018G24KT 19/05 A2968 RMK A01 T01870050  RH  040%=      5-min Rain = 0
KES1 090333Z 25019KT 19/05 A2968 RMK A01 T01880050  RH  040%=      5-min Rain = 0
KES1 090334Z 25017KT 19/05 A2968 RMK A01 T01880049  RH  040%=      5-min Rain = 0
KES1 090335Z 25018G23KT 19/05 A2968 RMK A01 T01870049  RH  040%=      5-min Rain = 0
KES1 090336Z 25020G25KT 19/05 A2968 RMK A01 T01870049  RH  040%=      5-min Rain = 0
KES1 090337Z 25018G23KT 19/05 A2968 RMK A01 T01870048  RH  040%=      5-min Rain = 0
KES1 090338Z 25018G24KT 19/05 A2968 RMK A01 T01880048  RH  040%=      5-min Rain = 0
KES1 090339Z 25020G25KT 19/05 A2968 RMK A01 T01880047  RH  039%=      5-min Rain = 0
KES1 090340Z 25018G25KT 19/05 A2968 RMK A01 T01880047  RH  039%=      5-min Rain = 0
KES1 090341Z 25019G25KT 19/05 A2968 RMK A01 T01880046  RH  039%=      5-min Rain = 0
KES1 090342Z 25019KT 19/05 A2969 RMK A01 T01870046  RH  039%=      5-min Rain = 0
KES1 090343Z 25017KT 19/05 A2968 RMK A01 T01870046  RH  039%=      5-min Rain = 0
KES1 090344Z 25012G17KT 19/05 A2969 RMK A01 T01870046  RH  039%=      5-min Rain = 0
KES1 090345Z 25019G25KT 19/05 A2969 RMK A01 T01860046  RH  040%=      5-min Rain = 0
KES1 090346Z 25017KT 19/05 A2969 RMK A01 T01850045  RH  040%=      5-min Rain = 0
KES1 090347Z 25018KT 19/04 A2969 RMK A01 T01850044  RH  039%=      5-min Rain = 0
KES1 090348Z 25014G19KT 19/04 A2968 RMK A01 T01850044  RH  039%=      5-min Rain = 0
KES1 090349Z 25018KT 19/04 A2968 RMK A01 T01850044  RH  039%=      5-min Rain = 0
KES1 090350Z 25017KT 19/04 A2968 RMK A01 T01850043  RH  039%=      5-min Rain = 0
KES1 090351Z 25017G22KT 19/04 A2968 RMK A01 T01860043  RH  039%=      5-min Rain = 0
KES1 090352Z 25018G26KT 19/04 A2969 RMK A01 T01850042  RH  039%=      5-min Rain = 0
KES1 090353Z 25018G23KT 19/04 A2969 RMK A01 T01850042  RH  039%=      5-min Rain = 0
KES1 090354Z 25013KT 19/04 A2969 RMK A01 T01850041  RH  038%=      5-min Rain = 0
KES1 090355Z 25017KT 19/04 A2968 RMK A01 T01850041  RH  039%=      5-min Rain = 0
KES1 090356Z 25018KT 18/04 A2969 RMK A01 T01840041  RH  039%=      5-min Rain = 0
KES1 090357Z 26017G22KT 18/04 A2969 RMK A01 T01840040  RH  038%=      5-min Rain = 0
KES1 090358Z 25014G19KT 18/04 A2968 RMK A01 T01840040  RH  038%=      5-min Rain = 0
KES1 090359Z 25017KT 18/04 A2968 RMK A01 T01840039  RH  038%=      5-min Rain = 0
KES1 090400Z 25021G26KT 18/04 A2968 RMK A01 T01830038  RH  038%=      5-min Rain = 0
KES1 090401Z 26016G21KT 19/04 A2968 RMK A01 T01850038  RH  038%=      5-min Rain = 0
KES1 090402Z 25017G23KT 19/04 A2968 RMK A01 T01850038  RH  038%=      5-min Rain = 0
KES1 090403Z 26014G19KT 18/04 A2968 RMK A01 T01840037  RH  038%=      5-min Rain = 0
KES1 090404Z 25015G20KT 18/04 A2968 RMK A01 T01840037  RH  038%=      5-min Rain = 0
KES1 090405Z 26015KT 18/04 A2968 RMK A01 T01830036  RH  038%=      5-min Rain = 0
KES1 090406Z 26016KT 18/04 A2968 RMK A01 T01830036  RH  038%=      5-min Rain = 0
KES1 090407Z 26012G17KT 18/04 A2968 RMK A01 T01830036  RH  037%=      5-min Rain = 0
KES1 090408Z 25015G20KT 18/04 A2968 RMK A01 T01830035  RH  037%=      5-min Rain = 0
KES1 090409Z 26013KT 18/04 A2968 RMK A01 T01830035  RH  037%=      5-min Rain = 0
KES1 090410Z 26016KT 18/03 A2968 RMK A01 T01820034  RH  037%=      5-min Rain = 0
KES1 090411Z 26015G20KT 18/03 A2968 RMK A01 T01820034  RH  037%=      5-min Rain = 0
KES1 090412Z 26011KT 18/03 A2969 RMK A01 T01830034  RH  037%=      5-min Rain = 0
KES1 090413Z 26015G21KT 18/03 A2969 RMK A01 T01820034  RH  037%=      5-min Rain = 0
KES1 090414Z 26014KT 18/03 A2969 RMK A01 T01820033  RH  037%=      5-min Rain = 0
KES1 090415Z 27013KT 18/03 A2969 RMK A01 T01820033  RH  037%=      5-min Rain = 0
KES1 090416Z 27012G17KT 18/03 A2969 RMK A01 T01820033  RH  037%=      5-min Rain = 0
KES1 090417Z 27013KT 18/03 A2969 RMK A01 T01810033  RH  037%=      5-min Rain = 0
KES1 090418Z 27011KT 18/03 A2969 RMK A01 T01810033  RH  037%=      5-min Rain = 0
KES1 090419Z 27013G20KT 18/03 A2969 RMK A01 T01800032  RH  037%=      5-min Rain = 0
KES1 090420Z 28011KT 18/03 A2969 RMK A01 T01800032  RH  037%=      5-min Rain = 0
KES1 090421Z 27011KT 18/03 A2969 RMK A01 T01800032  RH  037%=      5-min Rain = 0
KES1 090422Z 27012KT 18/03 A2969 RMK A01 T01790032  RH  037%=      5-min Rain = 0
KES1 090423Z 27012KT 18/03 A2969 RMK A01 T01790032  RH  037%=      5-min Rain = 0
KES1 090424Z 27012KT 18/03 A2969 RMK A01 T01790032  RH  037%=      5-min Rain = 0
KES1 090425Z 27011KT 18/03 A2969 RMK A01 T01790031  RH  037%=      5-min Rain = 0
KES1 090426Z 28011KT 18/03 A2969 RMK A01 T01790031  RH  037%=      5-min Rain = 0
KES1 090427Z 28013KT 18/03 A2969 RMK A01 T01780031  RH  037%=      5-min Rain = 0
KES1 090428Z 28014KT 18/03 A297 RMK A01 T01780031  RH  037%=      5-min Rain = 0
KES1 090429Z 28013KT 18/03 A297 RMK A01 T01780031  RH  037%=      5-min Rain = 0
KES1 090430Z 28012KT 18/03 A297 RMK A01 T01780030  RH  037%=      5-min Rain = 0
KES1 090431Z 28011KT 18/03 A2969 RMK A01 T01780030  RH  037%=      5-min Rain = 0
KES1 090432Z 29011KT 18/03 A2969 RMK A01 T01770030  RH  037%=      5-min Rain = 0
KES1 090433Z 28011KT 18/03 A2969 RMK A01 T01770030  RH  038%=      5-min Rain = 0
KES1 090434Z 28010KT 18/03 A2969 RMK A01 T01760030  RH  038%=      5-min Rain = 0
KES1 090435Z 28014G19KT 18/03 A297 RMK A01 T01750030  RH  038%=      5-min Rain = 0
KES1 090436Z 28011KT 18/03 A297 RMK A01 T01750029  RH  038%=      5-min Rain = 0
KES1 090437Z 28012KT 18/03 A297 RMK A01 T01760030  RH  038%=      5-min Rain = 0
KES1 090438Z 27009KT 18/03 A297 RMK A01 T01760029  RH  038%=      5-min Rain = 0
KES1 090439Z 27011KT 18/03 A297 RMK A01 T01750029  RH  038%=      5-min Rain = 0
KES1 090440Z 27013G19KT 17/03 A2969 RMK A01 T01740029  RH  038%=      5-min Rain = 0
KES1 090441Z 26013KT 17/03 A2969 RMK A01 T01740029  RH  038%=      5-min Rain = 0
KES1 090442Z 26012KT 17/03 A2969 RMK A01 T01740029  RH  038%=      5-min Rain = 0
KES1 090443Z 26014KT 17/03 A2969 RMK A01 T01740029  RH  038%=      5-min Rain = 0
KES1 090444Z 26011KT 17/03 A2969 RMK A01 T01740029  RH  038%=      5-min Rain = 0
KES1 090445Z 27012KT 17/03 A2969 RMK A01 T01740029  RH  038%=      5-min Rain = 0
KES1 090446Z 27014KT 17/03 A2969 RMK A01 T01740029  RH  038%=      5-min Rain = 0
KES1 090447Z 27016KT 17/03 A297 RMK A01 T01740029  RH  038%=      5-min Rain = 0
KES1 090448Z 26013KT 18/03 A297 RMK A01 T01750029  RH  037%=      5-min Rain = 0
KES1 090449Z 26013KT 18/03 A297 RMK A01 T01750029  RH  037%=      5-min Rain = 0
KES1 090450Z 26015KT 18/03 A297 RMK A01 T01750029  RH  038%=      5-min Rain = 0
KES1 090451Z 26015KT 18/03 A297 RMK A01 T01750029  RH  038%=      5-min Rain = 0
KES1 090452Z 27011KT 18/03 A297 RMK A01 T01750029  RH  038%=      5-min Rain = 0
KES1 090453Z 26010G15KT 18/03 A297 RMK A01 T01750029  RH  038%=      5-min Rain = 0
KES1 090454Z 26012KT 17/03 A297 RMK A01 T01730028  RH  038%=      5-min Rain = 0
KES1 090455Z 27013KT 17/03 A297 RMK A01 T01730029  RH  038%=      5-min Rain = 0
KES1 090456Z 26013KT 17/03 A297 RMK A01 T01740029  RH  038%=      5-min Rain = 0
KES1 090457Z 27012KT 17/03 A297 RMK A01 T01740029  RH  038%=      5-min Rain = 0
KES1 090458Z 27013KT 17/03 A297 RMK A01 T01740029  RH  038%=      5-min Rain = 0
KES1 090459Z 27014KT 17/03 A297 RMK A01 T01740029  RH  038%=      5-min Rain = 0
KES1 090500Z 27015KT 17/03 A297 RMK A01 T01740029  RH  038%=      5-min Rain = 0
KES1 090501Z 27012KT 17/03 A297 RMK A01 T01740029  RH  038%=      5-min Rain = 0
KES1 090502Z 28013KT 17/03 A297 RMK A01 T01740029  RH  038%=      5-min Rain = 0
KES1 090503Z 27009KT 17/03 A297 RMK A01 T01730029  RH  038%=      5-min Rain = 0
KES1 090504Z 27012KT 17/03 A297 RMK A01 T01710029  RH  038%=      5-min Rain = 0
KES1 090505Z 27012KT 17/03 A297 RMK A01 T01710029  RH  039%=      5-min Rain = 0
KES1 090506Z 27014KT 17/03 A297 RMK A01 T01700029  RH  039%=      5-min Rain = 0
KES1 090507Z 27013KT 17/03 A297 RMK A01 T01700030  RH  039%=      5-min Rain = 0
KES1 090508Z 27012KT 17/03 A297 RMK A01 T01710030  RH  039%=      5-min Rain = 0
KES1 090509Z 27012KT 17/03 A297 RMK A01 T01710030  RH  039%=      5-min Rain = 0
KES1 090510Z 27013KT 17/03 A297 RMK A01 T01700030  RH  039%=      5-min Rain = 0
KES1 090511Z 27013KT 17/03 A297 RMK A01 T01690030  RH  039%=      5-min Rain = 0
KES1 090512Z 27013KT 17/03 A297 RMK A01 T01690030  RH  039%=      5-min Rain = 0
KES1 090513Z 27015KT 17/03 A2969 RMK A01 T01690030  RH  039%=      5-min Rain = 0
KES1 090514Z 26014KT 17/03 A297 RMK A01 T01700030  RH  039%=      5-min Rain = 0
KES1 090515Z 27013KT 17/03 A297 RMK A01 T01700030  RH  039%=      5-min Rain = 0
KES1 090516Z 26012KT 17/03 A297 RMK A01 T01690030  RH  039%=      5-min Rain = 0
KES1 090517Z 26012KT 17/03 A297 RMK A01 T01690031  RH  040%=      5-min Rain = 0
KES1 090518Z 26015KT 17/03 A297 RMK A01 T01690030  RH  040%=      5-min Rain = 0
KES1 090519Z 26015KT 17/03 A297 RMK A01 T01680030  RH  040%=      5-min Rain = 0
KES1 090520Z 26012KT 17/03 A297 RMK A01 T01690031  RH  040%=      5-min Rain = 0
KES1 090521Z 26012KT 17/03 A297 RMK A01 T01680030  RH  040%=      5-min Rain = 0
KES1 090522Z 26012KT 17/03 A297 RMK A01 T01670030  RH  040%=      5-min Rain = 0
KES1 090523Z 26013KT 17/03 A297 RMK A01 T01670031  RH  040%=      5-min Rain = 0
KES1 090524Z 26012KT 17/03 A297 RMK A01 T01660030  RH  040%=      5-min Rain = 0
KES1 090525Z 26011KT 17/03 A297 RMK A01 T01660030  RH  040%=      5-min Rain = 0
KES1 090526Z 26012KT 17/03 A297 RMK A01 T01660030  RH  040%=      5-min Rain = 0
KES1 090527Z 26012KT 17/03 A297 RMK A01 T01650030  RH  041%=      5-min Rain = 0
KES1 090528Z 26013KT 17/03 A297 RMK A01 T01650030  RH  040%=      5-min Rain = 0
KES1 090529Z 26011G16KT 17/03 A297 RMK A01 T01650030  RH  040%=      5-min Rain = 0
KES1 090530Z 26012KT 17/03 A297 RMK A01 T01650031  RH  041%=      5-min Rain = 0
KES1 090531Z 25012KT 16/03 A297 RMK A01 T01640031  RH  041%=      5-min Rain = 0
KES1 090532Z 26012KT 16/03 A297 RMK A01 T01640031  RH  041%=      5-min Rain = 0
KES1 090533Z 26011KT 16/03 A297 RMK A01 T01630031  RH  041%=      5-min Rain = 0
KES1 090534Z 26011KT 16/03 A297 RMK A01 T01630031  RH  041%=      5-min Rain = 0
KES1 090535Z 25012KT 16/03 A297 RMK A01 T01630031  RH  041%=      5-min Rain = 0
KES1 090536Z 26012KT 16/03 A297 RMK A01 T01630031  RH  041%=      5-min Rain = 0
KES1 090537Z 26012KT 16/03 A297 RMK A01 T01630031  RH  041%=      5-min Rain = 0
KES1 090538Z 26013KT 16/03 A297 RMK A01 T01630031  RH  041%=      5-min Rain = 0
KES1 090539Z 26011KT 16/03 A297 RMK A01 T01640031  RH  041%=      5-min Rain = 0
KES1 090540Z 26010KT 16/03 A297 RMK A01 T01630032  RH  041%=      5-min Rain = 0
KES1 090541Z 26011KT 16/03 A297 RMK A01 T01620031  RH  042%=      5-min Rain = 0
KES1 090542Z 27011KT 16/03 A297 RMK A01 T01620032  RH  042%=      5-min Rain = 0
KES1 090543Z 26011KT 16/03 A297 RMK A01 T01620032  RH  042%=      5-min Rain = 0
KES1 090544Z 26010KT 16/03 A297 RMK A01 T01620032  RH  042%=      5-min Rain = 0
KES1 090545Z 26012KT 16/03 A297 RMK A01 T01620033  RH  042%=      5-min Rain = 0
KES1 090546Z 26012KT 16/03 A297 RMK A01 T01610032  RH  042%=      5-min Rain = 0
KES1 090547Z 26011KT 16/03 A297 RMK A01 T01610033  RH  042%=      5-min Rain = 0
KES1 090548Z 26013KT 16/03 A297 RMK A01 T01610033  RH  042%=      5-min Rain = 0
KES1 090549Z 25012KT 16/03 A297 RMK A01 T01610033  RH  042%=      5-min Rain = 0
KES1 090550Z 26012KT 16/03 A297 RMK A01 T01620033  RH  042%=      5-min Rain = 0
KES1 090551Z 26011KT 16/03 A297 RMK A01 T01620033  RH  042%=      5-min Rain = 0
KES1 090552Z 26011KT 16/03 A297 RMK A01 T01620033  RH  042%=      5-min Rain = 0
KES1 090553Z 26012KT 16/03 A297 RMK A01 T01620033  RH  042%=      5-min Rain = 0
KES1 090554Z 26011KT 16/03 A297 RMK A01 T01620034  RH  042%=      5-min Rain = 0
KES1 090555Z 26012KT 16/03 A297 RMK A01 T01620034  RH  042%=      5-min Rain = 0
KES1 090556Z 26010KT 16/03 A297 RMK A01 T01630034  RH  042%=      5-min Rain = 0
KES1 090557Z 26011KT 16/03 A297 RMK A01 T01620034  RH  042%=      5-min Rain = 0
KES1 090558Z 26010KT 16/03 A297 RMK A01 T01620034  RH  042%=      5-min Rain = 0
KES1 090559Z 26011G16KT 16/03 A297 RMK A01 T01610034  RH  043%=      5-min Rain = 0

Page generated in 0.0808 seconds.